TO8075 / F-HUYM 7700 Squawk Report (11th of May, 2022)

Time Lat Lon Altitude Heading Speed Vertical Rate
2022-05-11 21:21:25 GMT 48.726135 2.395020 225 255 138 -640
2022-05-11 21:21:24 GMT 48.726242 2.395513 225 255 138 -640
2022-05-11 21:21:17 GMT 48.727669 2.403476 375 256 135 -704
2022-05-11 21:21:13 GMT 48.728043 2.405500 375 255 134 -704
2022-05-11 21:21:11 GMT 48.728531 2.408259 400 255 134 -576
2022-05-11 21:21:09 GMT 48.728760 2.409598 425 255 134 -576
2022-05-11 21:21:06 GMT 48.729626 2.414101 475 254 133 -768
2022-05-11 21:21:03 GMT 48.729904 2.415513 475 254 133 -768
2022-05-11 21:21:02 GMT 48.730042 2.416358 500 254 132 -832
2022-05-11 21:21:01 GMT 48.730499 2.418612 525 255 132 -832
2022-05-11 21:20:59 GMT 48.730602 2.419088 550 255 131 -832
2022-05-11 21:20:58 GMT 48.731022 2.421257 575 255 129 -832
2022-05-11 21:20:56 GMT 48.731140 2.422063 575 255 129 -832
2022-05-11 21:20:54 GMT 48.731461 2.423683 600 255 129 -768
2022-05-11 21:20:52 GMT 48.731598 2.424598 625 255 128 -704
2022-05-11 21:20:51 GMT 48.731861 2.425955 650 255 128 -576
2022-05-11 21:20:50 GMT 48.731998 2.426750 675 255 129 -576
2022-05-11 21:20:48 GMT 48.732418 2.428846 675 255 129 -576
2022-05-11 21:20:46 GMT 48.732651 2.430219 675 255 129 -576
2022-05-11 21:20:44 GMT 48.732971 2.431922 700 255 128 -512
2022-05-11 21:20:43 GMT 48.733257 2.433616 725 255 128 -576
2022-05-11 21:20:41 GMT 48.733395 2.434484 750 255 128 -576
2022-05-11 21:20:39 GMT 48.733749 2.436218 750 256 128 -768
2022-05-11 21:20:38 GMT 48.733910 2.437086 775 256 128 -768
2022-05-11 21:20:37 GMT 48.734234 2.438965 800 256 128 -832
2022-05-11 21:20:35 GMT 48.734375 2.439904 800 255 127 -832
2022-05-11 21:20:33 GMT 48.734665 2.441641 825 256 128 -704
2022-05-11 21:20:32 GMT 48.734840 2.442579 850 256 128 -704
2022-05-11 21:20:31 GMT 48.735031 2.443542 850 255 128 -704
2022-05-11 21:20:30 GMT 48.735352 2.445303 875 255 128 -640
2022-05-11 21:20:28 GMT 48.735493 2.446120 875 255 128 -640
2022-05-11 21:20:26 GMT 48.735809 2.447768 900 255 127 -704
2022-05-11 21:20:25 GMT 48.736084 2.449458 925 255 127 -832
2022-05-11 21:20:23 GMT 48.736267 2.450515 950 255 127 -832
2022-05-11 21:20:20 GMT 48.736725 2.452909 975 254 126 -832
2022-05-11 21:20:18 GMT 48.737076 2.454794 1,025 254 125 -832
2022-05-11 21:20:17 GMT 48.737076 2.454794 1,050 254 125 -832
2022-05-11 21:20:16 GMT 48.737446 2.456745 1,050 254 125 -704
2022-05-11 21:20:14 GMT 48.737633 2.457613 1,075 254 125 -640
2022-05-11 21:20:13 GMT 48.737774 2.458408 1,100 254 125 -640
2022-05-11 21:20:11 GMT 48.738098 2.459998 1,100 253 125 -512
2022-05-11 21:20:10 GMT 48.738285 2.460938 1,125 253 125 -512
2022-05-11 21:20:08 GMT 48.738602 2.462487 1,125 253 124 -512
2022-05-11 21:20:07 GMT 48.738796 2.463612 1,150 253 124 -512
2022-05-11 21:20:05 GMT 48.739120 2.465057 1,150 254 123 -512
2022-05-11 21:20:04 GMT 48.739288 2.466008 1,150 254 123 -512
2022-05-11 21:20:03 GMT 48.739494 2.466864 1,175 254 123 -512
2022-05-11 21:20:02 GMT 48.739822 2.468599 1,175 254 122 -512
2022-05-11 21:20:00 GMT 48.740005 2.469394 1,200 255 122 -512
2022-05-11 21:19:59 GMT 48.740112 2.470093 1,200 255 122 -576
2022-05-11 21:19:57 GMT 48.740479 2.471924 1,225 255 121 -576
2022-05-11 21:19:56 GMT 48.740753 2.473544 1,250 255 121 -576
2022-05-11 21:19:54 GMT 48.740936 2.474459 1,250 255 121 -576
2022-05-11 21:19:52 GMT 48.741440 2.477276 1,275 256 121 -512
2022-05-11 21:19:48 GMT 48.741806 2.479389 1,300 256 121 -512
2022-05-11 21:19:46 GMT 48.742172 2.481431 1,325 256 121 -576
2022-05-11 21:19:45 GMT 48.742474 2.483127 1,350 255 122 -576
2022-05-11 21:19:43 GMT 48.742584 2.483755 1,350 255 122 -512
2022-05-11 21:19:42 GMT 48.742950 2.485868 1,350 255 123 -512
2022-05-11 21:19:41 GMT 48.742950 2.485868 1,375 255 123 -512
2022-05-11 21:19:38 GMT 48.743313 2.487825 1,400 256 124 -640
2022-05-11 21:19:36 GMT 48.743591 2.489487 1,425 256 125 -640
2022-05-11 21:19:35 GMT 48.743912 2.491291 1,450 256 126 -768
2022-05-11 21:19:33 GMT 48.744057 2.492090 1,450 255 126 -768
2022-05-11 21:19:32 GMT 48.744244 2.492957 1,475 255 126 -832
2022-05-11 21:19:30 GMT 48.744568 2.494908 1,550 255 127 -960
2022-05-11 21:19:28 GMT 48.744736 2.495798 1,550 255 127 -960
2022-05-11 21:19:26 GMT 48.745010 2.497418 1,550 256 128 -960
2022-05-11 21:19:24 GMT 48.745331 2.499108 1,600 256 128 -960
2022-05-11 21:19:23 GMT 48.745499 2.500112 1,600 256 129 -896
2022-05-11 21:19:22 GMT 48.745640 2.500835 1,625 256 130 -832
2022-05-11 21:19:20 GMT 48.745918 2.502642 1,650 256 131 -704
2022-05-11 21:19:19 GMT 48.746063 2.503474 1,675 255 132 -640
2022-05-11 21:19:18 GMT 48.746384 2.505244 1,675 255 134 -640
2022-05-11 21:19:16 GMT 48.746571 2.506184 1,725 255 137 -704
2022-05-11 21:19:14 GMT 48.746990 2.508497 1,725 255 139 -704
2022-05-11 21:19:13 GMT 48.747269 2.510015 1,725 255 139 -704
2022-05-11 21:19:12 GMT 48.747345 2.510517 1,750 255 139 -704
2022-05-11 21:19:11 GMT 48.747620 2.511925 1,750 255 140 -704
2022-05-11 21:19:10 GMT 48.747688 2.512327 1,750 255 140 -704
2022-05-11 21:19:08 GMT 48.748108 2.514713 1,800 255 140 -768
2022-05-11 21:19:07 GMT 48.748432 2.516520 1,825 255 140 -768
2022-05-11 21:19:05 GMT 48.748528 2.517026 1,825 255 141 -768
2022-05-11 21:19:04 GMT 48.748718 2.517982 1,850 255 142 -704
2022-05-11 21:19:02 GMT 48.748989 2.519483 1,875 255 143 -704
2022-05-11 21:19:00 GMT 48.749634 2.523053 1,900 255 144 -704
2022-05-11 21:18:58 GMT 48.749828 2.524037 1,900 255 144 -704
2022-05-11 21:18:56 GMT 48.750183 2.525940 1,925 255 144 -768
2022-05-11 21:18:55 GMT 48.750340 2.526783 1,950 255 145 -768
2022-05-11 21:18:53 GMT 48.750732 2.528898 1,975 255 145 -768
2022-05-11 21:18:51 GMT 48.750900 2.529963 2,000 255 145 -768
2022-05-11 21:18:49 GMT 48.751282 2.531997 2,025 255 145 -704
2022-05-11 21:18:45 GMT 48.752014 2.535870 2,050 255 145 -768
2022-05-11 21:18:43 GMT 48.752438 2.538348 2,150 255 145 -768
2022-05-11 21:18:40 GMT 48.753227 2.542612 2,150 255 145 -768
2022-05-11 21:18:37 GMT 48.753479 2.544180 2,175 255 145 -768
2022-05-11 21:18:34 GMT 48.754120 2.547701 2,225 255 145 -768
2022-05-11 21:18:31 GMT 48.754578 2.550166 2,250 255 145 -768
2022-05-11 21:18:29 GMT 48.754856 2.551647 2,275 255 145 -768
2022-05-11 21:18:27 GMT 48.755356 2.554392 2,300 255 145 -768
2022-05-11 21:18:21 GMT 48.756363 2.559814 2,375 255 146 -704
2022-05-11 21:18:18 GMT 48.756859 2.562344 2,400 255 146 -704
2022-05-11 21:18:16 GMT 48.757187 2.564251 2,425 255 146 -768
2022-05-11 21:18:12 GMT 48.757881 2.568126 2,475 255 146 -768
2022-05-11 21:18:09 GMT 48.758533 2.571740 2,525 255 147 -768
2022-05-11 21:18:06 GMT 48.758953 2.574053 2,550 255 147 -768
2022-05-11 21:18:02 GMT 48.759705 2.578195 2,625 256 146 -832
2022-05-11 21:17:59 GMT 48.760349 2.581715 2,650 255 147 -832
2022-05-11 21:17:57 GMT 48.760574 2.582984 2,675 256 146 -832
2022-05-11 21:17:52 GMT 48.761490 2.588196 2,750 255 147 -768
2022-05-11 21:17:50 GMT 48.762444 2.593352 2,800 255 147 -704
2022-05-11 21:17:47 GMT 48.762444 2.593352 2,800 255 147 -704
2022-05-11 21:17:43 GMT 48.763184 2.597421 2,850 255 146 -512
2022-05-11 21:17:41 GMT 48.763561 2.599640 2,875 255 145 -320
2022-05-11 21:17:39 GMT 48.763935 2.601808 2,875 255 145 -320
2022-05-11 21:17:37 GMT 48.764191 2.603126 2,900 255 145 -256
2022-05-11 21:17:33 GMT 48.765015 2.607492 2,900 254 146 0
2022-05-11 21:17:31 GMT 48.765656 2.610873 2,900 254 147 64
2022-05-11 21:17:27 GMT 48.766125 2.613301 2,900 254 147 64
2022-05-11 21:17:21 GMT 48.767193 2.618432 2,900 253 148 64
2022-05-11 21:17:19 GMT 48.767658 2.620817 2,900 253 149 0
2022-05-11 21:17:16 GMT 48.768215 2.623347 2,900 253 151 0
2022-05-11 21:17:12 GMT 48.769894 2.630792 2,900 244 161 -128
2022-05-11 21:17:09 GMT 48.770592 2.633394 2,900 247 158 -64
2022-05-11 21:17:07 GMT 48.770592 2.633394 2,900 244 161 -128
2022-05-11 21:17:02 GMT 48.773392 2.641296 2,900 237 170 -64
2022-05-11 21:16:59 GMT 48.773392 2.641296 2,900 237 170 -64
2022-05-11 21:16:56 GMT 48.776505 2.648409 2,925 256 177 64
2022-05-11 21:16:52 GMT 48.776505 2.648409 2,925 256 177 64
2022-05-11 21:16:49 GMT 48.777832 2.651790 2,925 249 176 0
2022-05-11 21:16:47 GMT 48.778503 2.654066 2,925 259 177 64
2022-05-11 21:16:43 GMT 48.779251 2.658185 2,900 271 183 -192
2022-05-11 21:16:41 GMT 48.779434 2.660100 2,925 300 202 0
2022-05-11 21:16:38 GMT 48.779484 2.663968 2,925 283 189 -128
2022-05-11 21:16:36 GMT 48.779251 2.666714 2,925 285 190 -192
2022-05-11 21:16:32 GMT 48.778107 2.672776 2,925 305 206 128
2022-05-11 21:16:26 GMT 48.775524 2.679652 2,925 307 208 192
2022-05-11 21:16:23 GMT 48.773571 2.683700 2,900 312 214 192
2022-05-11 21:16:21 GMT 48.772499 2.685507 2,900 314 216 128
2022-05-11 21:16:18 GMT 48.770370 2.688904 2,900 324 228 0
2022-05-11 21:16:16 GMT 48.768963 2.690855 2,900 320 223 0
2022-05-11 21:16:11 GMT 48.765015 2.695665 2,900 328 233 0
2022-05-11 21:16:08 GMT 48.761841 2.698806 2,900 330 237 0
2022-05-11 21:16:06 GMT 48.759888 2.700524 2,900 331 240 0
2022-05-11 21:16:03 GMT 48.756718 2.703215 2,900 331 244 -64
2022-05-11 21:16:01 GMT 48.755741 2.704082 2,900 331 243 0
2022-05-11 21:15:57 GMT 48.751511 2.707637 2,900 331 245 0
2022-05-11 21:15:55 GMT 48.746796 2.711651 2,900 331 246 64
2022-05-11 21:15:53 GMT 48.746796 2.711651 2,900 331 246 0
2022-05-11 21:15:46 GMT 48.740425 2.717092 2,900 331 247 64
2022-05-11 21:15:44 GMT 48.737820 2.719261 2,900 331 248 64
2022-05-11 21:15:41 GMT 48.735397 2.721299 2,900 331 248 64
2022-05-11 21:15:38 GMT 48.731815 2.724320 2,900 331 249 0
2022-05-11 21:15:36 GMT 48.730225 2.725666 2,900 331 249 0
2022-05-11 21:15:34 GMT 48.727798 2.727708 2,900 331 249 -64
2022-05-11 21:15:30 GMT 48.725052 2.729962 2,900 331 249 -128
2022-05-11 21:15:26 GMT 48.719757 2.734439 2,950 331 249 -832
2022-05-11 21:15:23 GMT 48.718460 2.735525 3,000 331 249 -960
2022-05-11 21:15:21 GMT 48.715210 2.738272 3,025 331 249 -960
2022-05-11 21:15:17 GMT 48.711136 2.741652 3,075 331 249 -1024
2022-05-11 21:15:15 GMT 48.709656 2.742968 3,100 331 249 -1024
2022-05-11 21:15:13 GMT 48.707886 2.744414 3,150 331 249 -960
2022-05-11 21:15:10 GMT 48.704910 2.746934 3,175 331 249 -960
2022-05-11 21:15:05 GMT 48.699509 2.751512 3,275 331 251 -960
2022-05-11 21:15:02 GMT 48.696350 2.754188 3,375 331 251 -1024
2022-05-11 21:15:00 GMT 48.694710 2.755545 3,350 331 251 -1024
2022-05-11 21:14:55 GMT 48.689163 2.760315 3,425 331 253 -1088
2022-05-11 21:14:50 GMT 48.684608 2.764218 3,525 331 254 -1088
2022-05-11 21:14:45 GMT 48.679256 2.768844 3,625 331 257 -1024
2022-05-11 21:14:41 GMT 48.674229 2.773181 3,700 331 257 -1024
2022-05-11 21:14:35 GMT 48.666828 2.779613 3,800 331 260 -1024
2022-05-11 21:14:33 GMT 48.663708 2.782360 3,850 331 260 -1024
2022-05-11 21:14:30 GMT 48.663708 2.782360 3,850 330 261 -1024
2022-05-11 21:14:25 GMT 48.654922 2.789964 3,975 331 264 -960
2022-05-11 21:14:22 GMT 48.654922 2.789964 4,000 331 265 -960
2022-05-11 21:14:20 GMT 48.652767 2.791828 4,025 331 265 -960
2022-05-11 21:14:16 GMT 48.648624 2.795298 4,100 331 267 -960
2022-05-11 21:14:14 GMT 48.644341 2.798912 4,150 332 268 -1024
2022-05-11 21:14:12 GMT 48.644341 2.798912 4,175 332 269 -1088
2022-05-11 21:14:10 GMT 48.642334 2.800528 4,200 332 269 -1152
2022-05-11 21:14:06 GMT 48.637592 2.804477 4,300 331 269 -1280
2022-05-11 21:14:04 GMT 48.635731 2.806067 4,300 331 271 -1344
2022-05-11 21:14:02 GMT 48.633499 2.807922 4,375 331 271 -1280
2022-05-11 21:14:00 GMT 48.630840 2.810187 4,425 331 271 -1344
2022-05-11 21:13:56 GMT 48.626404 2.813909 4,525 331 271 -1536
2022-05-11 21:13:53 GMT 48.623718 2.816114 4,575 331 270 -1728
2022-05-11 21:13:50 GMT 48.619858 2.819402 4,675 331 270 -1792
2022-05-11 21:13:46 GMT 48.615761 2.822908 4,800 331 269 -1728
2022-05-11 21:13:44 GMT 48.612991 2.825177 4,875 331 269 -1728
2022-05-11 21:13:41 GMT 48.608780 2.828698 4,975 331 269 -1728
2022-05-11 21:13:39 GMT 48.608780 2.828698 4,975 331 269 -1728
2022-05-11 21:13:36 GMT 48.604385 2.832430 5,100 331 269 -1664
2022-05-11 21:13:32 GMT 48.598114 2.837712 5,225 331 268 -1664
2022-05-11 21:13:30 GMT 48.598114 2.837712 5,250 331 267 -1728
2022-05-11 21:13:25 GMT 48.593124 2.841867 5,400 331 266 -1920
2022-05-11 21:13:23 GMT 48.590527 2.844086 5,475 331 265 -1984
2022-05-11 21:13:21 GMT 48.588455 2.845811 5,550 331 265 -2048
2022-05-11 21:13:19 GMT 48.586945 2.847049 5,575 332 264 -1984
2022-05-11 21:13:15 GMT 48.582504 2.850741 5,700 332 264 -1664
2022-05-11 21:13:12 GMT 48.578659 2.853980 5,800 332 264 -1408
2022-05-11 21:13:10 GMT 48.576096 2.856093 5,850 332 264 -1280
2022-05-11 21:13:05 GMT 48.571999 2.859481 5,925 332 266 -1216
2022-05-11 21:13:02 GMT 48.567764 2.863065 6,000 332 266 -1088
2022-05-11 21:12:58 GMT 48.563187 2.866868 6,100 331 268 -1024
2022-05-11 21:12:55 GMT 48.560989 2.868770 6,125 331 268 -1088
2022-05-11 21:12:51 GMT 48.556450 2.872563 6,200 331 270 -1216
2022-05-11 21:12:49 GMT 48.554684 2.874081 6,225 331 270 -1152
2022-05-11 21:12:45 GMT 48.549889 2.878129 6,300 331 271 -1216
2022-05-11 21:12:43 GMT 48.547188 2.880442 6,350 331 271 -1216
2022-05-11 21:12:41 GMT 48.546021 2.881376 6,400 331 271 -1216
2022-05-11 21:12:39 GMT 48.543182 2.883770 6,425 331 271 -1280
2022-05-11 21:12:35 GMT 48.539085 2.887236 6,525 331 273 -1344
2022-05-11 21:12:31 GMT 48.534245 2.891356 6,625 331 273 -1472
2022-05-11 21:12:29 GMT 48.532104 2.893163 6,675 331 273 -1472
2022-05-11 21:12:25 GMT 48.527729 2.896849 6,775 331 273 -1472
2022-05-11 21:12:23 GMT 48.523491 2.900463 6,825 331 273 -1472
2022-05-11 21:12:21 GMT 48.523491 2.900463 6,875 331 274 -1408
2022-05-11 21:12:19 GMT 48.521210 2.902342 6,900 331 274 -1344
2022-05-11 21:12:15 GMT 48.516647 2.906245 7,000 331 274 -1280
2022-05-11 21:12:13 GMT 48.512367 2.909859 7,075 331 275 -1152
2022-05-11 21:12:11 GMT 48.512367 2.909859 7,100 331 275 -1152
2022-05-11 21:12:08 GMT 48.509853 2.912027 7,125 331 275 -1152
2022-05-11 21:12:04 GMT 48.504501 2.916518 7,200 331 276 -1152
2022-05-11 21:12:01 GMT 48.500870 2.919617 7,275 331 277 -1344
2022-05-11 21:11:59 GMT 48.498821 2.921351 7,325 331 277 -1408
2022-05-11 21:11:55 GMT 48.494156 2.925321 7,425 331 277 -1472
2022-05-11 21:11:53 GMT 48.491837 2.927350 7,475 331 277 -1472
2022-05-11 21:11:50 GMT 48.487381 2.931096 7,550 331 277 -1408
2022-05-11 21:11:48 GMT 48.487381 2.931096 7,575 331 277 -1408
2022-05-11 21:11:44 GMT 48.482346 2.935392 7,675 331 278 -1408
2022-05-11 21:11:42 GMT 48.480560 2.936871 7,725 331 278 -1408
2022-05-11 21:11:40 GMT 48.478523 2.938554 7,750 331 279 -1408
2022-05-11 21:11:37 GMT 48.473694 2.942646 7,850 331 279 -1344
2022-05-11 21:11:34 GMT 48.470627 2.945181 7,900 331 280 -1344
2022-05-11 21:11:30 GMT 48.466599 2.948561 8,000 331 280 -1344
2022-05-11 21:11:28 GMT 48.464417 2.950407 8,025 331 280 -1344
2022-05-11 21:11:24 GMT 48.460373 2.953702 8,150 332 281 -1408
2022-05-11 21:11:22 GMT 48.457901 2.955828 8,175 332 281 -1344
2022-05-11 21:11:19 GMT 48.454010 2.959055 8,225 331 282 -1344
2022-05-11 21:11:16 GMT 48.450897 2.961661 8,300 331 282 -1344
2022-05-11 21:11:13 GMT 48.447334 2.964574 8,375 331 282 -1280
2022-05-11 21:11:10 GMT 48.443420 2.967826 8,450 332 283 -1344
2022-05-11 21:11:08 GMT 48.441746 2.969272 8,475 332 283 -1408
2022-05-11 21:11:04 GMT 48.434601 2.975182 8,625 332 283 -1472
2022-05-11 21:11:02 GMT 48.434601 2.975182 8,625 332 283 -1536
2022-05-11 21:11:00 GMT 48.431923 2.977439 8,700 331 283 -1536
2022-05-11 21:10:52 GMT 48.423172 2.984667 8,900 332 284 -1536
2022-05-11 21:10:50 GMT 48.420658 2.986763 8,950 332 283 -1600
2022-05-11 21:10:48 GMT 48.418564 2.988498 9,175 331 282 -1728
2022-05-11 21:10:44 GMT 48.414280 2.992040 9,100 332 283 -1728
2022-05-11 21:10:40 GMT 48.409058 2.996380 9,225 331 282 -1792
2022-05-11 21:10:37 GMT 48.405533 2.999338 9,325 331 282 -1600
2022-05-11 21:10:34 GMT 48.400223 3.003775 9,450 331 282 -1600
2022-05-11 21:10:32 GMT 48.400223 3.003775 9,450 331 282 -1600
2022-05-11 21:10:30 GMT 48.397842 3.005676 9,550 331 282 -1536
2022-05-11 21:10:28 GMT 48.395569 3.007652 9,575 331 282 -1472
2022-05-11 21:10:22 GMT 48.385529 3.016029 9,775 331 283 -1344
2022-05-11 21:10:19 GMT 48.385529 3.016029 9,750 331 283 -1344
2022-05-11 21:10:17 GMT 48.379459 3.021096 10,050 331 285 -1280
2022-05-11 21:10:14 GMT 48.379459 3.021096 9,875 331 285 -1280
2022-05-11 21:10:11 GMT 48.375046 3.024832 9,950 331 285 -1280
2022-05-11 21:10:08 GMT 48.373177 3.026372 10,000 331 285 -1344
2022-05-11 21:10:02 GMT 48.365479 3.032931 10,125 331 287 -1216
2022-05-11 21:09:58 GMT 48.360260 3.037297 10,225 331 288 -1344
2022-05-11 21:09:54 GMT 48.356369 3.040611 10,350 331 290 -1216
2022-05-11 21:09:52 GMT 48.351063 3.045164 10,375 331 291 -832
2022-05-11 21:09:49 GMT 48.351063 3.045164 10,375 331 291 -832
2022-05-11 21:09:47 GMT 48.348736 3.047116 10,400 331 293 -576
2022-05-11 21:09:44 GMT 48.342041 3.052791 10,425 331 298 -384
2022-05-11 21:09:41 GMT 48.338837 3.055467 10,450 331 300 -448
2022-05-11 21:09:39 GMT 48.338837 3.055467 10,450 331 300 -448
2022-05-11 21:09:36 GMT 48.335770 3.058073 10,475 331 303 -384
2022-05-11 21:09:33 GMT 48.331558 3.061716 10,500 331 305 -320
2022-05-11 21:09:31 GMT 48.329369 3.063523 10,500 331 307 -320
2022-05-11 21:09:29 GMT 48.326298 3.066125 10,500 331 310 -256
2022-05-11 21:09:27 GMT 48.323921 3.068077 10,525 331 312 -256
2022-05-11 21:09:22 GMT 48.317322 3.073637 10,550 331 317 -512
2022-05-11 21:09:17 GMT 48.311493 3.078557 10,575 331 321 -320
2022-05-11 21:09:13 GMT 48.306839 3.082440 10,600 331 327 0
2022-05-11 21:09:11 GMT 48.304184 3.084701 10,600 332 328 64
2022-05-11 21:09:09 GMT 48.300461 3.087809 10,600 332 332 0
2022-05-11 21:09:07 GMT 48.297775 3.090046 10,600 332 334 0
2022-05-11 21:09:02 GMT 48.291245 3.095470 10,600 332 341 -64
2022-05-11 21:08:58 GMT 48.286541 3.099301 10,600 332 346 -64
2022-05-11 21:08:56 GMT 48.283676 3.101736 10,600 332 348 -64
2022-05-11 21:08:51 GMT 48.275803 3.108215 10,600 332 354 -64
2022-05-11 21:08:46 GMT 48.268524 3.114201 10,625 332 362 -128
2022-05-11 21:08:42 GMT 48.262894 3.118850 10,650 332 366 -512
2022-05-11 21:08:36 GMT 48.253418 3.126737 10,750 331 370 -1664
2022-05-11 21:08:32 GMT 48.241882 3.136315 11,050 331 372 -2816
2022-05-11 21:08:28 GMT 48.241882 3.136315 11,050 331 372 -2816
2022-05-11 21:08:25 GMT 48.238174 3.139343 11,200 331 372 -2816
2022-05-11 21:08:21 GMT 48.231796 3.144692 11,350 331 372 -2624
2022-05-11 21:08:18 GMT 48.226730 3.148921 11,500 331 374 -2560
2022-05-11 21:08:16 GMT 48.223572 3.151527 11,575 331 374 -2560
2022-05-11 21:08:14 GMT 48.221878 3.152935 11,625 331 374 -2560
2022-05-11 21:08:10 GMT 48.215378 3.158358 11,825 331 375 -2560
2022-05-11 21:08:07 GMT 48.210571 3.162302 11,950 332 375 -2624
2022-05-11 21:08:05 GMT 48.207458 3.164908 12,050 332 375 -2624
2022-05-11 21:07:59 GMT 48.198349 3.172443 12,300 331 376 -2624
2022-05-11 21:07:57 GMT 48.196014 3.174415 12,375 331 377 -2560
2022-05-11 21:07:55 GMT 48.191711 3.178007 12,475 331 377 -2624
2022-05-11 21:07:50 GMT 48.184826 3.183722 12,675 331 377 -2688
2022-05-11 21:07:46 GMT 48.178116 3.189345 12,825 331 379 -2688
2022-05-11 21:07:42 GMT 48.171295 3.194979 13,075 331 380 -2688
2022-05-11 21:07:36 GMT 48.162621 3.202226 13,275 331 382 -2624
2022-05-11 21:07:32 GMT 48.158058 3.206036 13,350 331 382 -2624
2022-05-11 21:07:26 GMT 48.147770 3.214628 13,750 331 383 -2624
2022-05-11 21:07:23 GMT 48.143581 3.218079 13,875 332 384 -2624
2022-05-11 21:07:21 GMT 48.139618 3.221329 13,975 331 385 -2624
2022-05-11 21:07:16 GMT 48.132156 3.227509 14,200 332 386 -2624
2022-05-11 21:07:14 GMT 48.128357 3.230685 14,300 332 387 -2624
2022-05-11 21:07:09 GMT 48.122166 3.235755 14,475 332 388 -2624
2022-05-11 21:07:04 GMT 48.113087 3.243220 14,725 332 389 -2560
2022-05-11 21:07:01 GMT 48.109131 3.246460 14,825 332 389 -2560
2022-05-11 21:06:55 GMT 48.099518 3.254356 15,100 332 390 -2624
2022-05-11 21:06:51 GMT 48.093292 3.259575 15,275 332 392 -2624
2022-05-11 21:06:46 GMT 48.083450 3.267677 15,550 331 393 -2688
2022-05-11 21:06:43 GMT 48.079945 3.270616 15,650 331 393 -2688
2022-05-11 21:06:40 GMT 48.076405 3.273503 15,750 331 393 -2688
2022-05-11 21:06:35 GMT 48.067978 3.280518 15,975 331 394 -2688
2022-05-11 21:06:31 GMT 48.061275 3.286109 16,175 331 395 -2624
2022-05-11 21:06:25 GMT 48.051727 3.293976 16,425 331 397 -2688
2022-05-11 21:06:22 GMT 48.047241 3.297684 16,550 331 397 -2688
2022-05-11 21:06:19 GMT 48.042709 3.301460 16,900 331 398 -2688
2022-05-11 21:06:15 GMT 48.035385 3.307571 16,900 331 398 -2688
2022-05-11 21:06:11 GMT 48.029060 3.312800 17,075 331 399 -2688
2022-05-11 21:06:05 GMT 48.019005 3.321111 17,275 332 400 -2688
2022-05-11 21:06:01 GMT 48.013184 3.325905 17,550 331 402 -2688
2022-05-11 21:05:55 GMT 48.002609 3.334694 17,800 332 402 -2688
2022-05-11 21:05:51 GMT 47.996750 3.339500 17,950 331 402 -2752
2022-05-11 21:05:46 GMT 47.988468 3.346393 18,200 331 403 -2752
2022-05-11 21:05:44 GMT 47.985947 3.348427 18,275 332 404 -2688
2022-05-11 21:05:41 GMT 47.980453 3.353027 18,425 332 405 -2688
2022-05-11 21:05:36 GMT 47.969147 3.362297 18,725 332 406 -2688
2022-05-11 21:05:31 GMT 47.964027 3.366535 18,875 332 406 -2752
2022-05-11 21:05:26 GMT 47.955322 3.373648 19,125 332 407 -2816
2022-05-11 21:05:24 GMT 47.952988 3.375618 19,175 331 408 -2816
2022-05-11 21:05:21 GMT 47.946384 3.381042 19,375 331 409 -2816
2022-05-11 21:05:19 GMT 47.943916 3.383085 19,425 332 409 -2688
2022-05-11 21:05:15 GMT 47.936417 3.389282 19,650 331 410 -2688
2022-05-11 21:05:11 GMT 47.930138 3.394423 19,800 332 411 -2688
2022-05-11 21:05:06 GMT 47.921619 3.401395 20,025 332 413 -2752
2022-05-11 21:05:00 GMT 47.912979 3.408508 20,250 332 413 -2752
2022-05-11 21:04:54 GMT 47.902359 3.417229 20,550 332 416 -2752
2022-05-11 21:04:50 GMT 47.896271 3.422104 20,700 332 417 -2624
2022-05-11 21:04:44 GMT 47.885925 3.430481 20,950 332 419 -2112
2022-05-11 21:04:41 GMT 47.880020 3.435287 21,075 332 421 -1600
2022-05-11 21:04:39 GMT 47.876369 3.438228 21,100 332 422 -1472
2022-05-11 21:04:34 GMT 47.868073 3.444901 21,225 332 424 -1088
2022-05-11 21:04:31 GMT 47.862717 3.449158 21,275 332 425 -1024
2022-05-11 21:04:28 GMT 47.850952 3.458651 21,375 332 426 -1024
2022-05-11 21:04:24 GMT 47.850952 3.458651 21,400 332 426 -1024
2022-05-11 21:04:21 GMT 47.845413 3.463158 21,425 332 427 -960
2022-05-11 21:04:19 GMT 47.842987 3.465088 21,450 332 427 -960
2022-05-11 21:04:15 GMT 47.831215 3.474497 21,575 332 427 -960
2022-05-11 21:04:09 GMT 47.824173 3.480125 21,650 332 427 -960
2022-05-11 21:04:05 GMT 47.817108 3.485835 21,700 332 426 -960
2022-05-11 21:03:59 GMT 47.805634 3.495026 22,200 331 423 -960
2022-05-11 21:03:54 GMT 47.793091 3.505119 21,975 332 423 -896
2022-05-11 21:03:51 GMT 47.793091 3.505119 21,950 332 423 -896
2022-05-11 21:03:48 GMT 47.788605 3.508827 21,975 332 424 -896
2022-05-11 21:03:44 GMT 47.780640 3.515282 22,050 332 424 -896
2022-05-11 21:03:39 GMT 47.772537 3.521873 22,125 332 423 -832
2022-05-11 21:03:37 GMT 47.765488 3.527641 22,200 331 423 -960
2022-05-11 21:03:34 GMT 47.765488 3.527641 22,200 331 424 -1216
2022-05-11 21:03:31 GMT 47.758686 3.533302 22,250 331 425 -1600
2022-05-11 21:03:27 GMT 47.753284 3.537879 22,350 330 427 -1984
2022-05-11 21:03:23 GMT 47.745163 3.544876 22,525 330 428 -2624
2022-05-11 21:03:20 GMT 47.739990 3.549339 22,675 330 429 -2688
2022-05-11 21:03:18 GMT 47.736340 3.552528 22,775 330 430 -2880
2022-05-11 21:03:13 GMT 47.728615 3.559289 22,925 330 430 -3008
2022-05-11 21:03:09 GMT 47.722641 3.564514 23,125 330 431 -3200
2022-05-11 21:03:06 GMT 47.717422 3.569046 23,325 330 432 -3328
2022-05-11 21:03:03 GMT 47.711342 3.574360 23,525 330 432 -3072
2022-05-11 21:03:00 GMT 47.706757 3.578316 24,000 330 449 -64
2022-05-11 21:02:56 GMT 47.698772 3.585205 23,825 330 436 -1792
2022-05-11 21:02:53 GMT 47.693573 3.589645 23,925 330 440 -832
2022-05-11 21:02:50 GMT 47.689182 3.593445 24,000 330 449 -64
2022-05-11 21:02:44 GMT 47.679108 3.602142 24,000 330 446 -64
2022-05-11 21:02:40 GMT 47.671188 3.608940 24,000 330 447 0
2022-05-11 21:02:35 GMT 47.662766 3.616150 24,000 330 449 -64
2022-05-11 21:02:32 GMT 47.657364 3.620819 24,000 330 451 -64
2022-05-11 21:02:30 GMT 47.652966 3.624643 24,000 330 452 -64
2022-05-11 21:02:26 GMT 47.639977 3.635770 24,000 330 452 -64
2022-05-11 21:02:23 GMT 47.639977 3.635770 24,000 330 452 -64
2022-05-11 21:02:18 GMT 47.632111 3.642531 24,000 330 452 -64
2022-05-11 21:02:13 GMT 47.620468 3.652542 24,000 330 452 0
2022-05-11 21:02:09 GMT 47.613556 3.658447 24,000 330 452 0
2022-05-11 21:02:06 GMT 47.607437 3.663729 24,000 330 452 0
2022-05-11 21:02:02 GMT 47.602615 3.667854 24,000 330 452 0
2022-05-11 21:01:58 GMT 47.595657 3.673897 24,000 330 453 0
2022-05-11 21:01:52 GMT 47.584393 3.683589 24,000 330 453 0
2022-05-11 21:01:47 GMT 47.575516 3.691200 24,000 330 453 0
2022-05-11 21:01:44 GMT 47.569729 3.696195 24,000 330 453 0
2022-05-11 21:01:39 GMT 47.561211 3.703519 24,000 330 453 0
2022-05-11 21:01:35 GMT 47.554001 3.709740 24,000 330 453 0
2022-05-11 21:01:32 GMT 47.548416 3.714546 24,000 330 453 0
2022-05-11 21:01:28 GMT 47.539516 3.722252 24,000 330 453 64
2022-05-11 21:01:23 GMT 47.532906 3.727957 24,000 330 453 0
2022-05-11 21:01:20 GMT 47.526077 3.733841 24,000 330 454 -64
2022-05-11 21:01:17 GMT 47.521500 3.737755 24,000 330 454 -64
2022-05-11 21:01:14 GMT 47.515404 3.743028 24,000 330 454 -64
2022-05-11 21:01:11 GMT 47.509644 3.747986 24,000 330 454 -64
2022-05-11 21:01:08 GMT 47.505798 3.751282 24,000 330 454 0
2022-05-11 21:01:04 GMT 47.496735 3.759014 24,000 330 454 0
2022-05-11 21:01:01 GMT 47.491745 3.763367 24,000 330 454 0
2022-05-11 21:00:58 GMT 47.487396 3.767075 24,000 330 454 0
2022-05-11 21:00:51 GMT 47.475586 3.777237 24,000 330 454 0
2022-05-11 21:00:48 GMT 47.468388 3.783382 24,000 330 456 0
2022-05-11 21:00:41 GMT 47.455444 3.794509 24,000 330 455 0
2022-05-11 21:00:38 GMT 47.450325 3.798875 24,000 330 455 0
2022-05-11 21:00:34 GMT 47.442261 3.805870 24,000 330 456 0
2022-05-11 21:00:31 GMT 47.438416 3.809097 24,000 330 456 0
2022-05-11 21:00:26 GMT 47.428253 3.817886 24,000 330 456 0
2022-05-11 21:00:21 GMT 47.419228 3.825637 24,000 330 456 0
2022-05-11 21:00:15 GMT 47.407822 3.835426 24,000 330 457 0
2022-05-11 21:00:10 GMT 47.400139 3.842046 24,000 330 459 -64
2022-05-11 21:00:08 GMT 47.394554 3.846764 24,000 330 461 0
2022-05-11 21:00:06 GMT 47.390598 3.850215 24,000 330 460 0
2022-05-11 21:00:03 GMT 47.379425 3.859722 24,000 330 461 0
2022-05-11 20:59:59 GMT 47.379425 3.859722 24,000 330 461 0
2022-05-11 20:59:55 GMT 47.372116 3.865920 24,000 330 461 0
2022-05-11 20:59:51 GMT 47.364441 3.872475 24,000 331 462 0
2022-05-11 20:59:47 GMT 47.357220 3.878596 24,000 331 462 -64
2022-05-11 20:59:44 GMT 47.351898 3.883118 24,000 331 462 0
2022-05-11 20:59:41 GMT 47.345020 3.888949 24,000 331 464 0
2022-05-11 20:59:35 GMT 47.326584 3.904610 24,000 331 464 0
2022-05-11 20:59:31 GMT 47.326584 3.904610 24,000 331 464 0
2022-05-11 20:59:27 GMT 47.320118 3.910076 24,000 331 464 0
2022-05-11 20:59:23 GMT 47.312435 3.916626 24,000 331 464 0
2022-05-11 20:59:20 GMT 47.306522 3.921626 24,000 331 464 0
2022-05-11 20:59:14 GMT 47.294605 3.931697 24,000 331 465 0
2022-05-11 20:59:10 GMT 47.288269 3.937019 24,000 331 465 0
2022-05-11 20:59:07 GMT 47.282364 3.942032 24,000 331 465 0
2022-05-11 20:59:04 GMT 47.277008 3.946564 24,000 331 465 0
2022-05-11 20:59:01 GMT 47.258606 3.962151 24,000 331 465 0
2022-05-11 20:58:54 GMT 47.258606 3.962151 24,000 331 465 0
2022-05-11 20:58:50 GMT 47.251099 3.968468 24,000 331 465 0
2022-05-11 20:58:46 GMT 47.244747 3.973882 24,000 331 465 0
2022-05-11 20:58:40 GMT 47.232056 3.984604 24,000 331 465 0
2022-05-11 20:58:36 GMT 47.225616 3.990079 24,000 331 465 0
2022-05-11 20:58:30 GMT 47.213104 4.000603 24,000 331 465 -64
2022-05-11 20:58:26 GMT 47.206284 4.006371 24,000 331 465 -64
2022-05-11 20:58:23 GMT 47.200104 4.011589 24,000 331 465 0
2022-05-11 20:58:20 GMT 47.194519 4.016278 24,000 331 465 0
2022-05-11 20:58:16 GMT 47.187653 4.022163 24,000 331 465 0
2022-05-11 20:58:10 GMT 47.176208 4.031776 24,000 330 464 -64
2022-05-11 20:58:06 GMT 47.168701 4.038162 24,000 330 465 -64
2022-05-11 20:58:03 GMT 47.162445 4.043462 24,000 330 464 -64
2022-05-11 20:58:00 GMT 47.150017 4.053955 24,000 330 464 -64
2022-05-11 20:57:56 GMT 47.150017 4.053955 24,000 330 464 0
2022-05-11 20:57:52 GMT 47.143799 4.059242 24,000 331 464 0
2022-05-11 20:57:49 GMT 47.137585 4.064519 24,000 331 464 0
2022-05-11 20:57:45 GMT 47.130112 4.070847 24,000 331 464 0
2022-05-11 20:57:39 GMT 47.119904 4.079498 24,000 331 464 0
2022-05-11 20:57:35 GMT 47.111298 4.086777 24,000 331 462 0
2022-05-11 20:57:29 GMT 47.101135 4.095295 24,000 331 462 0
2022-05-11 20:57:25 GMT 47.092571 4.102548 24,000 330 461 0
2022-05-11 20:57:19 GMT 47.081680 4.111702 24,000 331 461 64
2022-05-11 20:57:14 GMT 47.073532 4.118568 24,000 331 461 64
2022-05-11 20:57:09 GMT 47.063290 4.127197 24,000 331 461 0
2022-05-11 20:57:04 GMT 47.055038 4.134155 24,000 331 461 0
2022-05-11 20:56:59 GMT 47.045334 4.142326 24,000 331 460 0
2022-05-11 20:56:52 GMT 47.031494 4.153959 24,000 331 460 0
2022-05-11 20:56:49 GMT 47.025787 4.158669 24,000 331 460 0
2022-05-11 20:56:44 GMT 47.017136 4.165947 24,000 331 460 0
2022-05-11 20:56:38 GMT 47.006241 4.175148 24,000 331 460 0
2022-05-11 20:56:32 GMT 46.995255 4.184280 24,000 331 460 0
2022-05-11 20:56:28 GMT 46.986897 4.191284 24,000 331 460 0
2022-05-11 20:56:21 GMT 46.975166 4.201144 24,000 331 460 0
2022-05-11 20:56:18 GMT 46.969940 4.205498 24,000 331 460 0
2022-05-11 20:56:08 GMT 46.950165 4.222060 24,000 331 461 0
2022-05-11 20:56:04 GMT 46.942795 4.228294 24,000 331 461 0
2022-05-11 20:55:58 GMT 46.932861 4.236603 24,000 331 462 0
2022-05-11 20:55:53 GMT 46.923958 4.244033 24,000 331 461 0
2022-05-11 20:55:48 GMT 46.914093 4.252258 24,000 331 461 0
2022-05-11 20:55:42 GMT 46.901733 4.262558 24,000 331 461 0
2022-05-11 20:55:37 GMT 46.894272 4.268806 24,000 331 461 0
2022-05-11 20:55:33 GMT 46.886078 4.275604 24,000 331 461 0
2022-05-11 20:55:28 GMT 46.876240 4.283823 24,000 331 462 0
2022-05-11 20:55:23 GMT 46.867722 4.290865 24,000 331 462 0
2022-05-11 20:55:18 GMT 46.857559 4.299339 24,000 331 462 0
2022-05-11 20:55:11 GMT 46.844307 4.310349 24,000 331 463 0
2022-05-11 20:55:06 GMT 46.835083 4.318029 24,000 331 464 0
2022-05-11 20:55:03 GMT 46.829865 4.322316 24,000 331 463 0
2022-05-11 20:54:58 GMT 46.820610 4.329987 24,000 331 463 0
2022-05-11 20:54:55 GMT 46.814934 4.334656 24,000 331 463 0
2022-05-11 20:54:51 GMT 46.808136 4.340286 24,000 331 464 0
2022-05-11 20:54:48 GMT 46.801991 4.345367 24,000 331 464 0
2022-05-11 20:54:45 GMT 46.797226 4.349313 24,000 331 464 0
2022-05-11 20:54:42 GMT 46.791367 4.354136 24,000 331 464 0
2022-05-11 20:54:37 GMT 46.782623 4.361371 24,000 331 464 -64
2022-05-11 20:54:33 GMT 46.774155 4.368338 24,000 331 464 0
2022-05-11 20:54:30 GMT 46.768753 4.372833 24,000 331 464 0
2022-05-11 20:54:27 GMT 46.763992 4.376712 24,000 331 464 0
2022-05-11 20:54:23 GMT 46.755661 4.383612 24,000 331 464 0
2022-05-11 20:54:20 GMT 46.750031 4.388234 24,000 331 464 0
2022-05-11 20:54:16 GMT 46.741104 4.395670 24,000 331 464 0
2022-05-11 20:54:13 GMT 46.736526 4.399422 24,000 331 464 0
2022-05-11 20:54:10 GMT 46.731697 4.403389 24,000 331 464 -64
2022-05-11 20:54:07 GMT 46.726063 4.408127 24,000 331 464 0
2022-05-11 20:54:01 GMT 46.713867 4.418313 24,000 331 464 0
2022-05-11 20:53:57 GMT 46.707321 4.423806 24,000 331 462 64
2022-05-11 20:53:52 GMT 46.697201 4.432297 24,000 331 462 64
2022-05-11 20:53:47 GMT 46.688828 4.439280 24,000 331 462 64
2022-05-11 20:53:41 GMT 46.678253 4.448056 24,000 331 462 0
2022-05-11 20:53:38 GMT 46.670574 4.454407 24,000 331 462 0
2022-05-11 20:53:34 GMT 46.665081 4.458939 24,000 331 462 64
2022-05-11 20:53:30 GMT 46.657681 4.465050 24,000 331 462 0
2022-05-11 20:53:26 GMT 46.650509 4.470955 24,000 331 462 64
2022-05-11 20:53:21 GMT 46.640549 4.479195 24,000 331 462 -64
2022-05-11 20:53:17 GMT 46.632385 4.485905 24,000 331 462 0
2022-05-11 20:53:11 GMT 46.621323 4.495056 24,000 331 462 64
2022-05-11 20:53:08 GMT 46.615875 4.499588 24,000 331 462 -64
2022-05-11 20:53:04 GMT 46.607574 4.506404 24,000 331 462 64
2022-05-11 20:53:01 GMT 46.594555 4.517097 24,000 331 462 0
2022-05-11 20:52:56 GMT 46.594555 4.517097 24,000 331 462 0
2022-05-11 20:52:52 GMT 46.587067 4.523286 24,000 331 462 0
2022-05-11 20:52:49 GMT 46.579788 4.529248 24,000 331 462 -64
2022-05-11 20:52:46 GMT 46.575119 4.533133 24,000 331 462 -64
2022-05-11 20:52:41 GMT 46.565411 4.541130 24,000 331 462 -64
2022-05-11 20:52:36 GMT 46.556801 4.548271 24,000 331 462 0
2022-05-11 20:52:29 GMT 46.543488 4.559189 24,000 331 463 0
2022-05-11 20:52:26 GMT 46.537994 4.563747 24,000 331 463 64
2022-05-11 20:52:20 GMT 46.526276 4.573327 24,000 331 463 64
2022-05-11 20:52:16 GMT 46.518860 4.579423 24,000 331 462 0
2022-05-11 20:52:10 GMT 46.507267 4.588921 24,000 331 462 0
2022-05-11 20:52:05 GMT 46.499084 4.595702 24,000 331 461 0
2022-05-11 20:51:59 GMT 46.487274 4.605348 24,000 331 460 0
2022-05-11 20:51:55 GMT 46.480919 4.610550 24,000 331 460 0
2022-05-11 20:51:49 GMT 46.469746 4.619751 24,000 331 459 0
2022-05-11 20:51:45 GMT 46.462372 4.625780 24,000 331 459 0
2022-05-11 20:51:40 GMT 46.452026 4.634221 24,000 331 458 0
2022-05-11 20:51:35 GMT 46.443493 4.641243 24,000 331 458 0
2022-05-11 20:51:29 GMT 46.432552 4.650169 24,000 331 458 0
2022-05-11 20:51:25 GMT 46.425339 4.656059 24,000 331 457 -64
2022-05-11 20:51:20 GMT 46.415421 4.664177 24,000 331 453 0
2022-05-11 20:51:16 GMT 46.408997 4.669457 24,025 331 453 0
2022-05-11 20:51:13 GMT 46.402760 4.674614 24,025 331 450 64
2022-05-11 20:51:09 GMT 46.396290 4.679901 24,000 331 449 64
2022-05-11 20:51:05 GMT 46.387444 4.687111 24,025 331 446 0
2022-05-11 20:50:59 GMT 46.378456 4.694527 24,025 331 445 64
2022-05-11 20:50:54 GMT 46.368496 4.702629 24,000 331 444 -64
2022-05-11 20:50:51 GMT 46.363953 4.706302 24,000 331 445 -64
2022-05-11 20:50:49 GMT 46.359238 4.710120 24,000 331 445 0
2022-05-11 20:50:46 GMT 46.354431 4.714073 24,000 331 445 0
2022-05-11 20:50:42 GMT 46.347015 4.720102 24,000 331 445 0
2022-05-11 20:50:39 GMT 46.341404 4.724670 24,000 331 446 -64
2022-05-11 20:50:34 GMT 46.333603 4.731021 24,000 331 446 64
2022-05-11 20:50:31 GMT 46.326782 4.736581 24,000 331 445 576
2022-05-11 20:50:28 GMT 46.314743 4.746362 23,825 331 445 1024
2022-05-11 20:50:24 GMT 46.314743 4.746362 23,875 331 444 1344
2022-05-11 20:50:21 GMT 46.309387 4.750716 23,750 331 443 1856
2022-05-11 20:50:17 GMT 46.300949 4.757561 23,650 331 442 1856
2022-05-11 20:50:14 GMT 46.297272 4.760582 23,600 331 441 1792
2022-05-11 20:50:08 GMT 46.287125 4.768822 23,425 331 440 1984
2022-05-11 20:50:05 GMT 46.274090 4.779327 23,125 331 439 2048
2022-05-11 20:50:01 GMT 46.274090 4.779327 23,175 331 440 2112
2022-05-11 20:49:57 GMT 46.264938 4.786690 22,975 331 438 1856
2022-05-11 20:49:54 GMT 46.260727 4.790106 22,925 331 437 1792
2022-05-11 20:49:51 GMT 46.255329 4.794434 22,825 331 436 1728
2022-05-11 20:49:48 GMT 46.249882 4.798828 22,750 331 433 2112
2022-05-11 20:49:44 GMT 46.243240 4.804174 22,625 331 434 2048
2022-05-11 20:49:40 GMT 46.234955 4.810806 22,450 331 434 2176
2022-05-11 20:49:37 GMT 46.231819 4.813316 22,325 331 432 2048
2022-05-11 20:49:34 GMT 46.225662 4.818175 22,275 332 433 1984
2022-05-11 20:49:29 GMT 46.216412 4.825607 22,075 332 431 2048
2022-05-11 20:49:26 GMT 46.212269 4.828903 22,075 332 431 2048
2022-05-11 20:49:23 GMT 46.207581 4.832645 21,925 331 431 2112
2022-05-11 20:49:19 GMT 46.199467 4.839134 21,725 332 429 2112
2022-05-11 20:49:16 GMT 46.194206 4.843323 21,625 331 428 2112
2022-05-11 20:49:13 GMT 46.190002 4.846645 21,575 331 427 2112
2022-05-11 20:49:10 GMT 46.184521 4.851013 21,475 331 427 1856
2022-05-11 20:49:06 GMT 46.176933 4.857124 21,275 331 419 704
2022-05-11 20:49:03 GMT 46.172604 4.860626 21,300 331 423 960
2022-05-11 20:49:00 GMT 46.166885 4.865202 21,250 331 411 512
2022-05-11 20:48:57 GMT 46.161991 4.869141 21,225 331 415 576
2022-05-11 20:48:53 GMT 46.155239 4.874634 21,200 331 411 448
2022-05-11 20:48:50 GMT 46.149979 4.878822 21,150 331 406 640
2022-05-11 20:48:47 GMT 46.144135 4.883557 21,125 331 404 832
2022-05-11 20:48:43 GMT 46.138870 4.887844 21,100 331 402 832
2022-05-11 20:48:38 GMT 46.131226 4.894007 21,050 331 396 320
2022-05-11 20:48:34 GMT 46.124496 4.899500 21,025 331 390 384
2022-05-11 20:48:32 GMT 46.122162 4.901376 21,000 331 389 576
2022-05-11 20:48:28 GMT 46.115662 4.906668 20,925 331 386 1600
2022-05-11 20:48:25 GMT 46.111156 4.910339 20,825 331 384 2368
2022-05-11 20:48:22 GMT 46.106686 4.913979 20,700 331 384 2944
2022-05-11 20:48:19 GMT 46.101891 4.917892 20,550 331 384 3008
2022-05-11 20:48:15 GMT 46.095657 4.922947 20,200 331 384 3008
2022-05-11 20:48:12 GMT 46.089981 4.927502 20,150 331 384 3008
2022-05-11 20:48:09 GMT 46.085220 4.931388 19,950 331 384 3072
2022-05-11 20:48:06 GMT 46.080433 4.935265 19,850 331 384 3072
2022-05-11 20:48:02 GMT 46.075241 4.939493 19,675 331 384 3264
2022-05-11 20:47:57 GMT 46.067917 4.945455 19,400 331 385 3264
2022-05-11 20:47:54 GMT 46.061783 4.950413 19,200 331 385 3200
2022-05-11 20:47:50 GMT 46.048962 4.960808 18,850 331 385 3520
2022-05-11 20:47:46 GMT 46.048962 4.960808 18,725 331 386 3648
2022-05-11 20:47:42 GMT 46.043655 4.965150 18,500 331 386 3776
2022-05-11 20:47:38 GMT 46.036835 4.970644 18,225 331 387 3712
2022-05-11 20:47:35 GMT 46.031597 4.974884 18,025 331 389 3776
2022-05-11 20:47:32 GMT 46.028107 4.977768 17,875 331 389 3840
2022-05-11 20:47:28 GMT 46.017059 4.986654 17,325 331 393 4352
2022-05-11 20:47:25 GMT 46.017059 4.986654 17,325 331 393 4352
2022-05-11 20:47:22 GMT 46.012299 4.990473 17,175 331 394 4480
2022-05-11 20:47:17 GMT 46.004379 4.996837 16,700 331 397 4096
2022-05-11 20:47:13 GMT 45.997467 5.002397 16,550 331 398 3584
2022-05-11 20:47:11 GMT 45.995937 5.003654 16,475 331 398 3328
2022-05-11 20:47:08 GMT 45.989822 5.008560 16,225 331 398 3200
2022-05-11 20:47:05 GMT 45.984741 5.012646 16,100 331 398 3264
2022-05-11 20:47:02 GMT 45.981537 5.015192 16,000 331 398 3264
2022-05-11 20:46:59 GMT 45.975174 5.020283 15,800 331 398 3072
2022-05-11 20:46:55 GMT 45.969357 5.025009 15,575 331 397 2688
2022-05-11 20:46:52 GMT 45.965542 5.028099 15,500 331 397 2688
2022-05-11 20:46:49 GMT 45.959255 5.033180 15,050 331 395 3136
2022-05-11 20:46:45 GMT 45.952042 5.038948 15,075 331 395 3392
2022-05-11 20:46:42 GMT 45.949448 5.041050 14,975 331 395 3392
2022-05-11 20:46:40 GMT 45.946243 5.043662 14,875 331 395 3264
2022-05-11 20:46:37 GMT 45.940659 5.048151 14,700 331 394 2880
2022-05-11 20:46:33 GMT 45.934769 5.052887 14,525 331 394 2752
2022-05-11 20:46:31 GMT 45.931046 5.055922 14,425 331 393 2688
2022-05-11 20:46:28 GMT 45.926853 5.059341 14,300 331 391 2624
2022-05-11 20:46:25 GMT 45.920990 5.064079 14,150 331 390 2560
2022-05-11 20:46:21 GMT 45.914612 5.069229 13,975 331 389 2624
2022-05-11 20:46:17 GMT 45.907677 5.074860 13,775 331 387 2368
2022-05-11 20:46:13 GMT 45.902138 5.079323 13,650 331 386 2176
2022-05-11 20:46:11 GMT 45.899185 5.081713 13,575 331 384 2240
2022-05-11 20:46:05 GMT 45.890945 5.088345 13,325 331 380 2688
2022-05-11 20:46:02 GMT 45.886185 5.092163 13,225 331 380 2560
2022-05-11 20:46:00 GMT 45.882935 5.094776 13,150 331 378 2304
2022-05-11 20:45:56 GMT 45.877369 5.099236 12,900 331 377 2176
2022-05-11 20:45:53 GMT 45.871506 5.103973 12,850 331 374 2880
2022-05-11 20:45:50 GMT 45.867687 5.106995 12,725 331 374 3264
2022-05-11 20:45:46 GMT 45.860596 5.112662 12,375 331 375 3648
2022-05-11 20:45:43 GMT 45.855957 5.116333 12,250 331 376 3648
2022-05-11 20:45:40 GMT 45.852558 5.119080 12,125 331 376 3648
2022-05-11 20:45:37 GMT 45.847412 5.123179 11,925 331 376 3520
2022-05-11 20:45:33 GMT 45.840591 5.128606 11,700 331 376 2944
2022-05-11 20:45:30 GMT 45.837009 5.131439 11,600 331 375 2432
2022-05-11 20:45:26 GMT 45.831142 5.136177 11,425 331 345 960
2022-05-11 20:45:22 GMT 45.824890 5.141200 11,375 331 368 960
2022-05-11 20:45:18 GMT 45.818802 5.146090 11,325 331 361 896
2022-05-11 20:45:14 GMT 45.812943 5.150779 11,200 331 352 1024
2022-05-11 20:45:10 GMT 45.807030 5.155540 11,200 331 352 1024
2022-05-11 20:45:06 GMT 45.801212 5.160278 11,125 331 343 896
2022-05-11 20:45:02 GMT 45.796326 5.164244 11,075 331 342 896
2022-05-11 20:44:59 GMT 45.792179 5.167625 11,025 331 337 960
2022-05-11 20:44:55 GMT 45.786175 5.172501 10,925 330 329 1024
2022-05-11 20:44:52 GMT 45.782917 5.175179 10,900 330 327 1024
2022-05-11 20:44:47 GMT 45.776733 5.180255 10,825 330 321 960
2022-05-11 20:44:44 GMT 45.772797 5.183537 10,800 330 313 1024
2022-05-11 20:44:41 GMT 45.769501 5.186284 10,750 330 313 1088
2022-05-11 20:44:39 GMT 45.766251 5.188980 10,675 331 306 1152
2022-05-11 20:44:36 GMT 45.761169 5.193184 10,625 331 300 896
2022-05-11 20:44:32 GMT 45.757324 5.196332 10,575 331 299 832
2022-05-11 20:44:27 GMT 45.751354 5.201065 9,150 334 288 1472
2022-05-11 20:44:24 GMT 45.746841 5.204505 10,400 335 288 1792
2022-05-11 20:44:18 GMT 45.739929 5.208993 10,175 340 284 2688
2022-05-11 20:44:15 GMT 45.732685 5.212669 10,000 343 282 3264
2022-05-11 20:44:12 GMT 45.732685 5.212669 9,875 343 283 3328
2022-05-11 20:44:09 GMT 45.729126 5.214286 9,725 344 283 3328
2022-05-11 20:44:06 GMT 45.721893 5.217300 9,500 345 283 3328
2022-05-11 20:44:03 GMT 45.721893 5.217300 9,400 346 284 3264
2022-05-11 20:44:00 GMT 45.716034 5.219377 8,925 0 284 3008
2022-05-11 20:43:58 GMT 45.716034 5.219377 9,150 353 284 3072
2022-05-11 20:43:55 GMT 45.711922 5.220291 9,000 354 283 3072
2022-05-11 20:43:52 GMT 45.707153 5.220851 8,800 1 284 3008
2022-05-11 20:43:46 GMT 45.692184 5.219193 8,375 8 281 2944
2022-05-11 20:43:41 GMT 45.692184 5.219193 8,250 9 281 3136
2022-05-11 20:43:37 GMT 45.687881 5.218171 8,050 8 280 3264
2022-05-11 20:43:34 GMT 45.680283 5.216630 7,675 8 280 3264
2022-05-11 20:43:31 GMT 45.680283 5.216630 7,725 9 280 3136
2022-05-11 20:43:26 GMT 45.673565 5.215141 7,450 11 279 3008
2022-05-11 20:43:21 GMT 45.667099 5.213214 7,175 14 279 3264
2022-05-11 20:43:17 GMT 45.662811 5.211639 6,975 17 279 3328
2022-05-11 20:43:13 GMT 45.657364 5.208961 6,550 32 281 3328
2022-05-11 20:43:10 GMT 45.653545 5.206215 6,550 32 281 3328
2022-05-11 20:43:07 GMT 45.651352 5.204304 6,450 36 281 3392
2022-05-11 20:43:02 GMT 45.645584 5.197769 5,950 47 283 3392
2022-05-11 20:42:58 GMT 45.641968 5.192112 5,875 56 285 3776
2022-05-11 20:42:53 GMT 45.635578 5.176277 5,300 68 287 3712
2022-05-11 20:42:45 GMT 45.634415 5.171345 5,150 77 289 3392
2022-05-11 20:42:40 GMT 45.633110 5.162613 4,900 87 289 2880
2022-05-11 20:42:36 GMT 45.632690 5.152451 4,650 94 286 2688
2022-05-11 20:42:31 GMT 45.633224 5.143812 4,475 111 277 2112
2022-05-11 20:42:26 GMT 45.634739 5.133842 4,225 111 277 2112
2022-05-11 20:42:21 GMT 45.640560 5.117294 4,075 120 267 1152
2022-05-11 20:42:15 GMT 45.640560 5.117294 4,000 128 256 1472
2022-05-11 20:42:12 GMT 45.643021 5.112796 3,850 135 249 2112
2022-05-11 20:42:05 GMT 45.649109 5.105092 3,650 149 237 1664
2022-05-11 20:42:02 GMT 45.651501 5.103081 3,600 156 228 960
2022-05-11 20:41:55 GMT 45.658173 5.099331 3,500 166 212 1088
2022-05-11 20:41:51 GMT 45.661652 5.098192 3,425 170 205 1344
2022-05-11 20:41:45 GMT 45.668118 5.096970 3,300 174 188 640
2022-05-11 20:41:41 GMT 45.671284 5.096558 3,250 175 184 576
2022-05-11 20:41:35 GMT 45.676544 5.095871 3,175 174 171 1088
2022-05-11 20:41:29 GMT 45.681709 5.095184 3,025 173 152 960
2022-05-11 20:41:22 GMT 45.686371 5.094374 2,925 173 150 1088
2022-05-11 20:41:15 GMT 45.691086 5.093570 2,750 172 142 1600
2022-05-11 20:41:11 GMT 45.693211 5.093193 2,675 172 139 1664
We lost coverage of the aircraft here for a total of 65 minutes
2022-05-11 19:36:10 GMT 45.736221 5.091627 700 175 131 -640
2022-05-11 19:36:03 GMT 45.740788 5.091064 775 175 131 -640
2022-05-11 19:35:53 GMT 45.746567 5.090354 875 175 131 -640
2022-05-11 19:35:43 GMT 45.752983 5.089554 1,000 174 134 -576
2022-05-11 19:35:33 GMT 45.759338 5.088814 1,125 174 135 -1024
2022-05-11 19:35:23 GMT 45.765015 5.088077 1,250 175 134 -896
2022-05-11 19:35:13 GMT 45.771465 5.087357 1,375 175 131 -640
2022-05-11 19:35:04 GMT 45.777283 5.086601 1,475 175 130 -448
2022-05-11 19:34:53 GMT 45.790512 5.085129 2,000 174 124 -640
2022-05-11 19:34:41 GMT 45.790512 5.085129 1,725 174 124 -640
2022-05-11 19:34:33 GMT 45.794880 5.084541 1,825 174 125 -640
2022-05-11 19:34:22 GMT 45.801544 5.083722 1,950 175 124 -576
2022-05-11 19:34:12 GMT 45.806946 5.083052 2,050 175 125 -640
2022-05-11 19:34:03 GMT 45.812210 5.082450 2,150 175 125 -576
2022-05-11 19:33:53 GMT 45.818249 5.081726 2,250 174 130 -640
2022-05-11 19:33:43 GMT 45.824440 5.080971 2,375 174 140 -512
2022-05-11 19:33:33 GMT 45.831070 5.080105 2,475 175 150 -832
2022-05-11 19:33:21 GMT 45.838898 5.079234 2,625 175 158 -768
2022-05-11 19:33:12 GMT 45.845718 5.078430 2,750 174 165 -896
2022-05-11 19:33:02 GMT 45.853580 5.077332 2,875 174 170 -512
2022-05-11 19:32:53 GMT 45.861557 5.076287 2,875 174 181 0
2022-05-11 19:32:41 GMT 45.871170 5.074813 2,850 174 188 192
2022-05-11 19:32:32 GMT 45.878815 5.073830 2,850 174 191 128
2022-05-11 19:32:17 GMT 45.892593 5.070671 2,850 167 200 0
2022-05-11 19:32:11 GMT 45.898087 5.067238 2,850 142 221 -128
2022-05-11 19:32:01 GMT 45.905823 5.058534 2,925 140 228 -384
2022-05-11 19:31:51 GMT 45.914520 5.048286 3,050 140 232 -1024
2022-05-11 19:31:41 GMT 45.922108 5.039429 3,175 139 237 -896
2022-05-11 19:31:32 GMT 45.930161 5.028786 3,350 127 247 -832
2022-05-11 19:31:21 GMT 45.937546 5.014857 3,500 126 257 -512
2022-05-11 19:31:18 GMT 45.939606 5.010770 3,500 126 257 -512
2022-05-11 19:31:11 GMT 45.944778 5.000633 3,575 126 264 -448
2022-05-11 19:31:00 GMT 45.952560 4.985515 3,650 126 272 -704
2022-05-11 19:30:50 GMT 45.959766 4.971245 3,825 125 275 -1408
2022-05-11 19:30:40 GMT 45.967449 4.956139 4,100 126 276 -1344
2022-05-11 19:30:30 GMT 45.975037 4.941302 4,300 126 280 -1216
2022-05-11 19:30:21 GMT 45.982857 4.926132 4,575 126 280 -1728
2022-05-11 19:30:10 GMT 45.990307 4.911644 4,850 124 281 -1728
2022-05-11 19:30:07 GMT 45.992771 4.906631 4,950 122 282 -1728
2022-05-11 19:30:00 GMT 45.997753 4.895027 5,150 120 283 -1664
2022-05-11 19:29:54 GMT 46.001587 4.885433 5,325 119 283 -1728
2022-05-11 19:29:50 GMT 46.004105 4.879136 5,625 119 284 -1408
2022-05-11 19:29:47 GMT 46.006039 4.874428 5,500 119 284 -1472
2022-05-11 19:29:40 GMT 46.010742 4.862617 5,825 119 285 -1408
2022-05-11 19:29:36 GMT 46.013069 4.856850 5,750 119 286 -1344
2022-05-11 19:29:30 GMT 46.019531 4.840750 5,950 120 289 -1216
2022-05-11 19:29:27 GMT 46.019531 4.840750 5,950 120 289 -1216
2022-05-11 19:29:19 GMT 46.024429 4.828759 6,100 120 290 -1408
2022-05-11 19:29:16 GMT 46.026615 4.823273 6,175 120 291 -1472
2022-05-11 19:29:10 GMT 46.030884 4.812749 6,350 119 292 -1408
2022-05-11 19:29:07 GMT 46.032993 4.807411 6,400 119 292 -1408
2022-05-11 19:29:00 GMT 46.038162 4.794571 6,600 119 296 -1408
2022-05-11 19:28:57 GMT 46.039791 4.790382 6,625 119 296 -1472
2022-05-11 19:28:49 GMT 46.045258 4.776708 6,825 119 299 -1536
2022-05-11 19:28:46 GMT 46.046822 4.772736 6,900 119 300 -1472
2022-05-11 19:28:39 GMT 46.051754 4.760170 6,975 119 306 -64
2022-05-11 19:28:36 GMT 46.054222 4.753922 6,975 119 321 64
2022-05-11 19:28:29 GMT 46.058689 4.742523 6,975 119 318 -64
2022-05-11 19:28:26 GMT 46.066223 4.723250 6,975 119 321 64
2022-05-11 19:28:19 GMT 46.066223 4.723250 6,975 119 332 0
2022-05-11 19:28:16 GMT 46.068653 4.716980 6,975 119 335 0
2022-05-11 19:28:09 GMT 46.073818 4.703659 6,950 119 346 64
2022-05-11 19:28:06 GMT 46.076202 4.697593 6,975 118 362 -64
2022-05-11 19:27:59 GMT 46.082153 4.682098 6,975 118 362 -64
2022-05-11 19:27:55 GMT 46.084671 4.675553 6,975 119 367 -192
2022-05-11 19:27:48 GMT 46.090805 4.659677 7,050 119 376 -896
2022-05-11 19:27:45 GMT 46.093002 4.654050 7,100 119 379 -1152
2022-05-11 19:27:40 GMT 46.097610 4.642136 7,225 119 384 -1792
2022-05-11 19:27:35 GMT 46.101612 4.631836 7,400 119 385 -2304
2022-05-11 19:27:29 GMT 46.106873 4.618240 7,625 119 385 -3008
2022-05-11 19:27:25 GMT 46.110550 4.608765 9,500 119 392 -3136
2022-05-11 19:27:18 GMT 46.117161 4.591736 8,275 119 389 -3072
2022-05-11 19:27:15 GMT 46.119396 4.585968 8,400 119 389 -3072
2022-05-11 19:27:08 GMT 46.125412 4.570379 8,850 119 391 -3136
2022-05-11 19:27:05 GMT 46.128204 4.563279 9,500 119 399 -2944
2022-05-11 19:26:57 GMT 46.134933 4.545928 9,300 119 395 -2752
2022-05-11 19:26:54 GMT 46.143768 4.523420 9,500 119 399 -2944
2022-05-11 19:26:47 GMT 46.143768 4.523420 9,775 119 399 -2944
2022-05-11 19:26:44 GMT 46.146488 4.516548 9,900 119 400 -2624
2022-05-11 19:26:37 GMT 46.153378 4.499245 10,175 119 404 -2112
2022-05-11 19:26:34 GMT 46.156124 4.492378 10,300 120 405 -2432
2022-05-11 19:26:27 GMT 46.163773 4.473445 10,650 120 411 -2432
2022-05-11 19:26:24 GMT 46.168461 4.461960 10,850 120 414 -2688
2022-05-11 19:26:18 GMT 46.170929 4.455986 11,375 120 414 -2688
2022-05-11 19:26:14 GMT 46.175446 4.445000 11,150 120 415 -2752
2022-05-11 19:26:08 GMT 46.181263 4.430855 11,425 120 416 -3008
2022-05-11 19:26:04 GMT 46.185379 4.420858 11,650 120 417 -3008
2022-05-11 19:25:58 GMT 46.190479 4.408470 12,225 119 425 -2496
2022-05-11 19:25:54 GMT 46.195183 4.396935 12,100 120 422 -2496
2022-05-11 19:25:48 GMT 46.201141 4.382034 12,350 119 425 -2496
2022-05-11 19:25:43 GMT 46.205238 4.371735 12,525 119 426 -2560
2022-05-11 19:25:36 GMT 46.212917 4.352440 12,900 119 426 -3072
2022-05-11 19:25:33 GMT 46.215866 4.345160 13,075 119 426 -3264
2022-05-11 19:25:27 GMT 46.221764 4.330330 13,675 119 416 -2432
2022-05-11 19:25:23 GMT 46.225250 4.321713 13,675 120 419 -4544
2022-05-11 19:25:18 GMT 46.230377 4.308985 14,100 120 416 -4992
2022-05-11 19:25:13 GMT 46.235321 4.296726 14,500 119 414 -4288
2022-05-11 19:25:07 GMT 46.240219 4.284400 14,775 119 415 -2816
2022-05-11 19:25:02 GMT 46.245087 4.272171 14,975 119 418 -1600
2022-05-11 19:24:57 GMT 46.250610 4.258408 15,075 119 424 -1216
2022-05-11 19:24:53 GMT 46.254501 4.248560 15,175 119 429 -1280
2022-05-11 19:24:47 GMT 46.260494 4.233376 15,300 119 433 -1408
2022-05-11 19:24:42 GMT 46.264870 4.222183 15,400 118 437 -1600
2022-05-11 19:24:37 GMT 46.270317 4.207970 15,575 120 440 -1792
2022-05-11 19:24:32 GMT 46.275146 4.196777 15,725 125 441 -2240
2022-05-11 19:24:27 GMT 46.281815 4.183731 16,025 131 440 -3584
2022-05-11 19:24:22 GMT 46.288288 4.173363 16,325 135 440 -4032
2022-05-11 19:24:18 GMT 46.298668 4.159561 16,800 141 440 -4160
2022-05-11 19:24:12 GMT 46.304115 4.153313 17,050 144 439 -4160
2022-05-11 19:24:06 GMT 46.312958 4.144798 17,425 150 437 -4480
2022-05-11 19:24:02 GMT 46.321293 4.138069 17,800 154 436 -4928
2022-05-11 19:23:56 GMT 46.332275 4.131060 18,275 160 434 -4608
2022-05-11 19:23:52 GMT 46.339737 4.127309 18,575 165 431 -4672
2022-05-11 19:23:46 GMT 46.350807 4.123100 19,000 170 429 -4544
2022-05-11 19:23:42 GMT 46.359184 4.120834 19,325 173 428 -4416
2022-05-11 19:23:35 GMT 46.371780 4.119270 19,800 179 426 -4288
2022-05-11 19:23:31 GMT 46.379471 4.119203 20,075 185 424 -4416
2022-05-11 19:23:26 GMT 46.390228 4.120610 20,500 191 421 -4544
2022-05-11 19:23:20 GMT 46.400524 4.123512 20,900 195 420 -4096
2022-05-11 19:23:15 GMT 46.409836 4.127083 21,225 198 418 -4224
2022-05-11 19:23:11 GMT 46.417747 4.130791 21,525 201 418 -4096
2022-05-11 19:23:05 GMT 46.428085 4.136554 21,900 205 418 -3712
2022-05-11 19:23:01 GMT 46.436138 4.141846 22,200 208 420 -3648
2022-05-11 19:22:55 GMT 46.445526 4.149215 22,550 212 420 -3904
2022-05-11 19:22:51 GMT 46.452709 4.155853 22,925 217 421 -3776
2022-05-11 19:22:47 GMT 46.459133 4.162582 23,075 220 421 -3712
2022-05-11 19:22:44 GMT 46.462669 4.166908 23,225 224 422 -3712
2022-05-11 19:22:41 GMT 46.467838 4.173981 23,450 229 422 -3712
2022-05-11 19:22:35 GMT 46.474823 4.185992 23,800 237 425 -3776
2022-05-11 19:22:30 GMT 46.479904 4.197246 24,300 251 431 -3520
2022-05-11 19:22:24 GMT 46.485123 4.212788 24,450 251 431 -3520
2022-05-11 19:22:20 GMT 46.487869 4.224444 24,700 256 434 -3328
2022-05-11 19:22:14 GMT 46.490341 4.240857 25,025 262 438 -3584
2022-05-11 19:22:10 GMT 46.491718 4.254662 25,350 263 439 -4800
2022-05-11 19:22:07 GMT 46.492416 4.263107 25,800 264 438 -5632
2022-05-11 19:22:04 GMT 46.492931 4.269081 25,800 264 438 -5632
2022-05-11 19:22:00 GMT 46.494095 4.282951 26,250 264 437 -5568
2022-05-11 19:21:54 GMT 46.495377 4.299205 26,775 264 436 -5568
2022-05-11 19:21:50 GMT 46.496429 4.312536 27,275 264 434 -5504
2022-05-11 19:21:47 GMT 46.497253 4.323120 27,675 264 433 -5632
2022-05-11 19:21:44 GMT 46.497726 4.329369 27,725 264 433 -5568
2022-05-11 19:21:39 GMT 46.498718 4.342212 28,150 264 431 -5696
2022-05-11 19:21:38 GMT 46.498947 4.344892 28,225 264 431 -5696
2022-05-11 19:21:37 GMT 46.499176 4.348107 28,350 264 431 -5696
2022-05-11 19:21:36 GMT 46.499401 4.350929 28,450 264 430 -5632
2022-05-11 19:21:35 GMT 46.499680 4.354843 28,550 264 430 -5632
2022-05-11 19:21:33 GMT 46.500137 4.360366 28,750 264 429 -5568
2022-05-11 19:21:31 GMT 46.501007 4.372291 29,075 264 428 -5568
2022-05-11 19:21:29 GMT 46.501007 4.372291 29,125 264 427 -5504
2022-05-11 19:21:26 GMT 46.501541 4.379356 29,350 264 426 -5440
2022-05-11 19:21:25 GMT 46.502060 4.386024 29,575 264 425 -5376
2022-05-11 19:21:22 GMT 46.502659 4.394463 29,825 264 424 -5376
2022-05-11 19:21:20 GMT 46.502892 4.397278 29,925 264 423 -5312
2022-05-11 19:21:18 GMT 46.503731 4.408813 30,150 264 422 -5312
2022-05-11 19:21:16 GMT 46.503731 4.408813 30,325 264 421 -5248
2022-05-11 19:21:13 GMT 46.504288 4.415955 30,925 264 417 -5184
2022-05-11 19:21:08 GMT 46.505871 4.437103 31,025 264 415 -5184
2022-05-11 19:21:06 GMT 46.505871 4.437103 31,225 264 415 -5184
2022-05-11 19:21:03 GMT 46.506592 4.446783 31,450 264 413 -4992
2022-05-11 19:20:59 GMT 46.507454 4.458046 31,800 264 412 -4928
2022-05-11 19:20:55 GMT 46.508106 4.466904 32,050 264 411 -4800
2022-05-11 19:20:53 GMT 46.508945 4.478096 32,375 264 410 -4672
2022-05-11 19:20:51 GMT 46.508945 4.478096 32,375 264 409 -4672
2022-05-11 19:20:49 GMT 46.509361 4.483521 32,550 264 408 -4736
2022-05-11 19:20:48 GMT 46.509567 4.486441 32,625 264 408 -4736
2022-05-11 19:20:45 GMT 46.510201 4.494370 32,850 264 407 -4736
2022-05-11 19:20:43 GMT 46.510620 4.499863 32,950 264 404 -3584
2022-05-11 19:20:39 GMT 46.511459 4.511055 33,400 264 404 -4224
2022-05-11 19:20:36 GMT 46.512157 4.519501 33,650 264 404 -4160
2022-05-11 19:20:33 GMT 46.512680 4.526367 33,725 264 404 -4096
2022-05-11 19:20:29 GMT 46.513641 4.538358 34,250 264 403 -3776
2022-05-11 19:20:26 GMT 46.514282 4.546464 34,275 264 404 -3712
2022-05-11 19:20:23 GMT 46.514904 4.553970 34,400 264 404 -3648
2022-05-11 19:20:18 GMT 46.515884 4.566427 35,400 265 406 -3392
2022-05-11 19:20:15 GMT 46.516533 4.574501 35,125 264 405 -3392
2022-05-11 19:20:11 GMT 46.517509 4.587341 35,125 264 405 -3392
2022-05-11 19:20:10 GMT 46.517929 4.592903 35,250 264 405 -3392
2022-05-11 19:20:06 GMT 46.518585 4.601731 35,525 265 406 -3456
2022-05-11 19:20:01 GMT 46.519592 4.616334 35,750 265 406 -3520
2022-05-11 19:19:58 GMT 46.519932 4.621811 35,850 267 407 -3072
2022-05-11 19:19:54 GMT 46.520443 4.629776 36,000 267 407 -3072
2022-05-11 19:19:51 GMT 46.520908 4.640488 36,325 270 410 -3072
2022-05-11 19:19:48 GMT 46.520966 4.648758 36,875 277 413 -2944
2022-05-11 19:19:45 GMT 46.520645 4.657466 36,875 277 413 -2944
2022-05-11 19:19:40 GMT 46.519455 4.671065 36,875 285 421 -2688
2022-05-11 19:19:36 GMT 46.517929 4.681206 36,875 287 422 -2752
2022-05-11 19:19:34 GMT 46.516857 4.686905 36,975 289 425 -2752
2022-05-11 19:19:32 GMT 46.515648 4.692467 37,075 294 429 -2944
2022-05-11 19:19:31 GMT 46.514996 4.695488 37,125 294 429 -2944
2022-05-11 19:19:29 GMT 46.513550 4.700876 37,200 295 429 -3136
2022-05-11 19:19:28 GMT 46.512817 4.703220 37,250 297 431 -3328
2022-05-11 19:19:27 GMT 46.510296 4.710938 37,450 304 435 -2752
2022-05-11 19:19:25 GMT 46.510296 4.710938 37,450 304 435 -2752
2022-05-11 19:19:22 GMT 46.507408 4.718628 37,900 304 435 -2752
2022-05-11 19:19:19 GMT 46.503204 4.728475 37,900 309 439 -1216
2022-05-11 19:19:15 GMT 46.499168 4.736824 37,900 309 439 -1216
2022-05-11 19:19:12 GMT 46.495789 4.743079 37,975 318 446 -256
2022-05-11 19:19:08 GMT 46.485203 4.759209 38,000 318 446 -256
2022-05-11 19:19:05 GMT 46.485203 4.759209 38,000 322 449 64
2022-05-11 19:19:01 GMT 46.480595 4.765045 38,000 322 449 64
2022-05-11 19:18:57 GMT 46.472488 4.773962 38,000 327 454 64
2022-05-11 19:18:54 GMT 46.467957 4.778316 38,000 329 455 0
2022-05-11 19:18:50 GMT 46.460575 4.785027 38,000 329 455 64
2022-05-11 19:18:48 GMT 46.457748 4.787560 38,000 329 455 64
2022-05-11 19:18:45 GMT 46.449638 4.794846 38,000 329 455 64
2022-05-11 19:18:41 GMT 46.444748 4.799240 38,000 329 455 64
2022-05-11 19:18:37 GMT 46.438835 4.804596 38,000 329 455 -64
2022-05-11 19:18:34 GMT 46.432892 4.809935 38,000 329 455 -64
2022-05-11 19:18:31 GMT 46.421814 4.819917 38,000 329 455 -64
2022-05-11 19:18:28 GMT 46.421814 4.819917 38,000 329 454 0
2022-05-11 19:18:24 GMT 46.412567 4.828290 38,000 329 454 0
2022-05-11 19:18:21 GMT 46.408066 4.832336 38,000 329 455 0
2022-05-11 19:18:18 GMT 46.403923 4.836044 38,000 329 455 0
2022-05-11 19:18:14 GMT 46.395309 4.843803 38,000 329 455 64
2022-05-11 19:18:11 GMT 46.390934 4.847717 38,000 329 455 64
2022-05-11 19:18:08 GMT 46.385582 4.852524 38,000 329 455 64
2022-05-11 19:18:04 GMT 46.377945 4.859459 38,000 329 455 -128
2022-05-11 19:18:00 GMT 46.372128 4.864677 38,000 329 455 -128
2022-05-11 19:17:55 GMT 46.363235 4.872643 38,000 329 455 128
2022-05-11 19:17:52 GMT 46.357681 4.877662 38,000 329 455 192
2022-05-11 19:17:48 GMT 46.349037 4.885414 38,000 329 455 128
2022-05-11 19:17:45 GMT 46.345917 4.888229 38,000 329 455 64
2022-05-11 19:17:41 GMT 46.338181 4.895213 38,000 329 455 -128
2022-05-11 19:17:39 GMT 46.334747 4.898228 38,000 329 455 -128
2022-05-11 19:17:36 GMT 46.327808 4.904503 38,000 329 455 0
2022-05-11 19:17:33 GMT 46.322708 4.909080 38,000 329 455 64
2022-05-11 19:17:30 GMT 46.313004 4.917789 38,000 329 455 64
2022-05-11 19:17:27 GMT 46.313004 4.917789 38,000 329 455 64
2022-05-11 19:17:23 GMT 46.306210 4.923935 38,000 329 455 64
2022-05-11 19:17:20 GMT 46.298576 4.930801 38,000 329 455 0
2022-05-11 19:17:17 GMT 46.295242 4.933799 38,000 329 455 0
2022-05-11 19:17:14 GMT 46.290298 4.938221 38,000 329 455 0
2022-05-11 19:17:09 GMT 46.281372 4.946259 38,000 329 455 0
2022-05-11 19:17:05 GMT 46.267731 4.958518 38,000 329 455 -64
2022-05-11 19:17:02 GMT 46.267731 4.958518 38,000 329 455 -64
2022-05-11 19:16:59 GMT 46.262695 4.963074 38,000 329 455 -64
2022-05-11 19:16:55 GMT 46.255783 4.969304 38,000 329 455 0
2022-05-11 19:16:52 GMT 46.249512 4.974931 38,000 329 455 0
2022-05-11 19:16:48 GMT 46.241821 4.981831 38,000 329 455 0
2022-05-11 19:16:45 GMT 46.238010 4.985252 38,000 329 455 0
2022-05-11 19:16:43 GMT 46.232529 4.990138 38,000 329 455 -64
2022-05-11 19:16:39 GMT 46.226532 4.995497 38,000 329 455 64
2022-05-11 19:16:36 GMT 46.221951 4.999672 38,000 329 454 0
2022-05-11 19:16:33 GMT 46.216461 5.004607 38,000 329 454 0
2022-05-11 19:16:30 GMT 46.205566 5.014321 38,000 329 455 -64
2022-05-11 19:16:27 GMT 46.205566 5.014321 38,000 329 455 -64
2022-05-11 19:16:24 GMT 46.200211 5.019173 38,000 329 454 0
2022-05-11 19:16:21 GMT 46.192795 5.025843 38,000 329 454 0
2022-05-11 19:16:17 GMT 46.187622 5.030465 38,000 329 454 64
2022-05-11 19:16:14 GMT 46.182426 5.035103 38,000 329 454 64
2022-05-11 19:16:08 GMT 46.172234 5.044235 38,000 329 455 0
2022-05-11 19:16:05 GMT 46.167297 5.048620 37,975 329 454 0
2022-05-11 19:16:03 GMT 46.163635 5.051902 38,000 329 455 -128
2022-05-11 19:15:59 GMT 46.156998 5.057797 38,000 329 454 -64
2022-05-11 19:15:56 GMT 46.149979 5.064011 38,000 329 455 -128
2022-05-11 19:15:53 GMT 46.145508 5.067980 38,000 329 454 64
2022-05-11 19:15:48 GMT 46.135548 5.076782 38,000 329 454 64
2022-05-11 19:15:45 GMT 46.131081 5.080627 38,000 329 454 64
2022-05-11 19:15:43 GMT 46.127609 5.083655 38,000 330 454 0
2022-05-11 19:15:40 GMT 46.122116 5.088412 38,000 330 455 0
2022-05-11 19:15:37 GMT 46.115799 5.093838 38,000 330 455 0
2022-05-11 19:15:34 GMT 46.110077 5.098728 38,000 330 455 0
2022-05-11 19:15:29 GMT 46.102497 5.105141 38,000 330 455 0
2022-05-11 19:15:26 GMT 46.091171 5.114672 38,000 330 455 0
2022-05-11 19:15:23 GMT 46.091171 5.114672 38,000 330 455 0
2022-05-11 19:15:19 GMT 46.084389 5.120453 38,000 330 455 0
2022-05-11 19:15:16 GMT 46.078896 5.125053 38,000 330 455 0
2022-05-11 19:15:13 GMT 46.073044 5.129945 38,000 330 455 0
2022-05-11 19:15:09 GMT 46.065582 5.136242 38,000 330 455 128
2022-05-11 19:15:06 GMT 46.059402 5.141468 38,000 330 456 64
2022-05-11 19:15:03 GMT 46.054222 5.145859 38,000 330 456 64
2022-05-11 19:15:00 GMT 46.044479 5.154129 38,000 330 456 0
2022-05-11 19:14:55 GMT 46.039280 5.158562 38,000 330 455 -128
2022-05-11 19:14:53 GMT 46.037384 5.160225 38,000 329 454 -64
2022-05-11 19:14:50 GMT 46.023636 5.172020 38,025 329 454 64
2022-05-11 19:14:46 GMT 46.023636 5.172020 38,025 329 454 64
2022-05-11 19:14:43 GMT 46.018112 5.176905 38,000 329 454 64
2022-05-11 19:14:37 GMT 46.007538 5.186284 38,000 328 453 64
2022-05-11 19:14:33 GMT 46.000595 5.192688 38,000 328 452 64
2022-05-11 19:14:30 GMT 45.994404 5.198456 38,000 328 452 0
2022-05-11 19:14:27 GMT 45.989746 5.202713 38,000 328 452 0
2022-05-11 19:14:23 GMT 45.982269 5.209596 38,000 328 452 -64
2022-05-11 19:14:19 GMT 45.976295 5.215141 38,000 328 452 -64
2022-05-11 19:14:17 GMT 45.967636 5.223106 38,000 328 452 0
2022-05-11 19:14:14 GMT 45.967636 5.223106 38,000 328 452 0
2022-05-11 19:14:12 GMT 45.953716 5.236015 38,000 328 452 64
2022-05-11 19:14:07 GMT 45.953716 5.236015 38,000 328 452 64
2022-05-11 19:14:03 GMT 45.942993 5.245905 38,000 328 452 0
2022-05-11 19:13:57 GMT 45.937820 5.250661 38,000 328 452 -64
2022-05-11 19:13:54 GMT 45.932533 5.255516 38,000 328 452 -64
2022-05-11 19:13:51 GMT 45.927246 5.260307 38,000 328 452 0
2022-05-11 19:13:45 GMT 45.916489 5.270222 38,000 328 452 64
2022-05-11 19:13:42 GMT 45.909439 5.276720 38,000 328 451 0
2022-05-11 19:13:39 GMT 45.905163 5.280579 38,000 328 451 0
2022-05-11 19:13:34 GMT 45.896549 5.288544 38,000 328 451 -64
2022-05-11 19:13:31 GMT 45.891708 5.292938 38,000 328 451 0
2022-05-11 19:13:28 GMT 45.886448 5.297813 38,000 328 451 0
2022-05-11 19:13:24 GMT 45.875336 5.307937 38,000 328 451 0
2022-05-11 19:13:21 GMT 45.875336 5.307937 38,000 328 450 64
2022-05-11 19:13:18 GMT 45.867599 5.315105 38,000 328 450 64
2022-05-11 19:13:15 GMT 45.863205 5.319125 38,000 328 451 64
2022-05-11 19:13:12 GMT 45.856888 5.324867 38,000 328 451 64
2022-05-11 19:13:08 GMT 45.851486 5.329811 38,000 328 451 64
2022-05-11 19:13:04 GMT 45.844597 5.336128 38,000 328 451 0
2022-05-11 19:13:01 GMT 45.839355 5.340896 38,000 328 451 -64
2022-05-11 19:12:58 GMT 45.833725 5.346054 38,000 328 450 0
2022-05-11 19:12:54 GMT 45.822487 5.356316 38,000 328 450 0
2022-05-11 19:12:51 GMT 45.822487 5.356316 38,000 328 445 0
2022-05-11 19:12:48 GMT 45.816284 5.361998 38,000 328 450 0
2022-05-11 19:12:44 GMT 45.804192 5.373207 38,000 328 450 -64
2022-05-11 19:12:41 GMT 45.804192 5.373207 38,000 328 450 0
2022-05-11 19:12:37 GMT 45.796741 5.380005 38,000 328 450 -64
2022-05-11 19:12:33 GMT 45.784790 5.391005 38,000 328 450 -64
2022-05-11 19:12:30 GMT 45.784790 5.391005 38,000 328 450 -64
2022-05-11 19:12:27 GMT 45.780170 5.395248 38,000 328 450 0
2022-05-11 19:12:23 GMT 45.773346 5.401455 38,000 328 450 0
2022-05-11 19:12:21 GMT 45.760990 5.412758 38,000 328 449 0
2022-05-11 19:12:17 GMT 45.760990 5.412758 38,000 328 448 0
2022-05-11 19:12:14 GMT 45.755730 5.417633 38,000 328 447 64
2022-05-11 19:12:11 GMT 45.751511 5.421485 38,000 328 446 0
2022-05-11 19:12:08 GMT 45.745811 5.426697 38,000 328 443 64
2022-05-11 19:12:04 GMT 45.732685 5.438782 38,000 328 444 64
2022-05-11 19:12:01 GMT 45.732685 5.438782 38,000 328 443 64
2022-05-11 19:11:58 GMT 45.727798 5.443257 38,000 328 442 64
2022-05-11 19:11:53 GMT 45.720444 5.449905 38,000 328 441 0
2022-05-11 19:11:50 GMT 45.716114 5.453957 38,000 328 441 0
2022-05-11 19:11:47 GMT 45.710587 5.458999 38,000 328 441 -64
2022-05-11 19:11:43 GMT 45.699234 5.469383 38,000 328 441 -64
2022-05-11 19:11:40 GMT 45.699234 5.469383 38,000 328 441 -64
2022-05-11 19:11:37 GMT 45.686188 5.481240 38,000 328 441 64
2022-05-11 19:11:33 GMT 45.680511 5.486398 38,000 328 441 64
2022-05-11 19:11:30 GMT 45.680511 5.486398 38,000 328 441 0
2022-05-11 19:11:23 GMT 45.668770 5.497078 38,000 328 441 -64
2022-05-11 19:11:20 GMT 45.663391 5.501940 38,000 328 441 -64
2022-05-11 19:11:14 GMT 45.652084 5.512189 38,000 328 440 0
2022-05-11 19:11:11 GMT 45.648880 5.515137 38,000 328 440 0
2022-05-11 19:11:07 GMT 45.638184 5.524818 38,000 328 440 0
2022-05-11 19:11:03 GMT 45.633270 5.529205 38,000 328 440 -64
2022-05-11 19:11:00 GMT 45.629154 5.532921 38,000 328 440 -64
2022-05-11 19:10:52 GMT 45.615692 5.545081 38,000 328 439 0
2022-05-11 19:10:49 GMT 45.610291 5.549971 38,000 328 439 64
2022-05-11 19:10:44 GMT 45.602200 5.557297 38,000 328 439 64
2022-05-11 19:10:42 GMT 45.598618 5.560556 38,000 328 439 64
2022-05-11 19:10:39 GMT 45.594589 5.564173 38,000 328 439 0
2022-05-11 19:10:35 GMT 45.586559 5.571442 38,000 328 439 -64
2022-05-11 19:10:32 GMT 45.581669 5.575905 38,000 328 439 0
2022-05-11 19:10:29 GMT 45.576084 5.580986 38,000 328 439 0
2022-05-11 19:10:23 GMT 45.566216 5.589912 38,000 328 439 0
2022-05-11 19:10:20 GMT 45.561047 5.594650 38,000 328 439 0
2022-05-11 19:10:17 GMT 45.556580 5.598701 38,000 328 439 0
2022-05-11 19:10:12 GMT 45.547127 5.607216 38,000 328 440 0
2022-05-11 19:10:09 GMT 45.541809 5.612052 38,000 328 440 0
2022-05-11 19:10:05 GMT 45.533722 5.619373 38,000 328 439 0
2022-05-11 19:10:01 GMT 45.528553 5.623995 38,000 328 439 -64
2022-05-11 19:09:58 GMT 45.524178 5.628015 38,000 328 439 -64
2022-05-11 19:09:52 GMT 45.511051 5.639872 38,000 328 440 0
2022-05-11 19:09:49 GMT 45.507465 5.643154 38,000 328 439 0
2022-05-11 19:09:45 GMT 45.502392 5.647777 38,000 328 439 0
2022-05-11 19:09:43 GMT 45.496719 5.652924 38,000 328 439 0
2022-05-11 19:09:38 GMT 45.489635 5.659433 38,000 328 440 -64
2022-05-11 19:09:35 GMT 45.484772 5.663845 38,000 328 440 0
2022-05-11 19:09:31 GMT 45.476696 5.671223 38,000 328 440 0
2022-05-11 19:09:28 GMT 45.471573 5.675845 38,000 328 440 64
2022-05-11 19:09:25 GMT 45.466965 5.679999 38,000 328 441 64
2022-05-11 19:09:21 GMT 45.459423 5.686832 38,000 328 441 0
2022-05-11 19:09:18 GMT 45.454742 5.691114 38,000 328 441 0
2022-05-11 19:09:13 GMT 45.447052 5.698046 38,000 328 442 64
2022-05-11 19:09:10 GMT 45.440571 5.703847 38,000 328 444 0
2022-05-11 19:09:07 GMT 45.434006 5.709742 38,000 328 444 -64
2022-05-11 19:09:04 GMT 45.428787 5.714460 38,000 328 444 -64
2022-05-11 19:09:01 GMT 45.425301 5.717580 38,000 328 444 -64
2022-05-11 19:08:58 GMT 45.420273 5.722111 38,000 328 444 -64
2022-05-11 19:08:52 GMT 45.407425 5.733657 38,000 328 444 0
2022-05-11 19:08:49 GMT 45.405396 5.735517 38,000 328 444 0
2022-05-11 19:08:46 GMT 45.398712 5.741534 38,000 328 444 0
2022-05-11 19:08:42 GMT 45.389130 5.750204 38,000 328 444 0
2022-05-11 19:08:40 GMT 45.381214 5.757305 38,000 328 444 0
2022-05-11 19:08:37 GMT 45.381214 5.757305 38,000 328 444 -64
2022-05-11 19:08:32 GMT 45.375778 5.762198 38,000 328 444 -64
2022-05-11 19:08:29 GMT 45.369205 5.768090 38,000 328 443 0
2022-05-11 19:08:25 GMT 45.361942 5.774655 38,000 328 443 0
2022-05-11 19:08:22 GMT 45.357056 5.779005 38,000 328 442 64
2022-05-11 19:08:20 GMT 45.351791 5.783713 38,000 328 442 64
2022-05-11 19:08:17 GMT 45.349457 5.785871 38,000 328 442 64
2022-05-11 19:08:12 GMT 45.340256 5.794111 38,000 328 442 -64
2022-05-11 19:08:10 GMT 45.332150 5.801384 38,000 328 442 -64
2022-05-11 19:08:07 GMT 45.332150 5.801384 38,000 328 442 -64
2022-05-11 19:08:00 GMT 45.319061 5.813141 38,000 328 443 64
2022-05-11 19:07:57 GMT 45.314713 5.816999 38,000 328 443 64
2022-05-11 19:07:50 GMT 45.297890 5.832065 38,000 328 443 0
2022-05-11 19:07:44 GMT 45.291046 5.838187 38,000 328 443 -64
2022-05-11 19:07:41 GMT 45.287460 5.841377 38,000 328 443 -64
2022-05-11 19:07:39 GMT 45.282303 5.845969 38,000 328 443 -64
2022-05-11 19:07:36 GMT 45.267014 5.859571 38,000 328 443 -64
2022-05-11 19:07:30 GMT 45.267014 5.859571 38,000 328 443 0
2022-05-11 19:07:27 GMT 45.261810 5.864221 38,000 328 442 0
2022-05-11 19:07:24 GMT 45.258179 5.867503 38,000 328 442 -64
2022-05-11 19:07:21 GMT 45.252731 5.872326 38,000 328 443 0
2022-05-11 19:07:18 GMT 45.246819 5.877619 38,000 328 442 0
2022-05-11 19:07:14 GMT 45.240829 5.882983 38,000 328 442 -64
2022-05-11 19:07:11 GMT 45.235474 5.887691 38,000 328 442 -64
2022-05-11 19:07:08 GMT 45.223404 5.898519 38,000 328 442 0
2022-05-11 19:07:05 GMT 45.223404 5.898519 38,000 328 442 0
2022-05-11 19:07:01 GMT 45.217911 5.903410 38,000 328 442 64
2022-05-11 19:06:59 GMT 45.207481 5.912721 38,000 328 441 64
2022-05-11 19:06:56 GMT 45.207481 5.912721 38,000 328 441 0
2022-05-11 19:06:50 GMT 45.193497 5.925228 38,000 328 441 0
2022-05-11 19:06:44 GMT 45.188461 5.929740 38,000 328 441 0
2022-05-11 19:06:41 GMT 45.183151 5.934514 38,000 328 441 0
2022-05-11 19:06:37 GMT 45.176338 5.940656 38,000 328 441 -64
2022-05-11 19:06:34 GMT 45.165710 5.950208 38,000 328 441 0
2022-05-11 19:06:31 GMT 45.165710 5.950208 38,000 328 441 0
2022-05-11 19:06:28 GMT 45.160789 5.954523 38,000 328 440 64
2022-05-11 19:06:25 GMT 45.146851 5.967015 38,000 328 440 64
2022-05-11 19:06:21 GMT 45.146851 5.967015 38,000 328 440 64
2022-05-11 19:06:18 GMT 45.143555 5.969958 38,000 328 441 64
2022-05-11 19:06:14 GMT 45.136444 5.976295 38,000 328 441 64
2022-05-11 19:06:10 GMT 45.129742 5.982257 38,000 328 441 64
2022-05-11 19:06:07 GMT 45.124390 5.987013 38,000 328 440 0
2022-05-11 19:06:04 GMT 45.119080 5.991769 38,000 328 440 -64
2022-05-11 19:06:01 GMT 45.108932 6.000813 38,000 328 440 -128
2022-05-11 19:05:58 GMT 45.108932 6.000813 38,000 328 440 -128
2022-05-11 19:05:55 GMT 45.102631 6.006383 38,000 328 440 -64
2022-05-11 19:05:49 GMT 45.091568 6.016220 38,000 328 440 0
2022-05-11 19:05:46 GMT 45.088943 6.018546 38,000 328 440 0
2022-05-11 19:05:43 GMT 45.083725 6.023189 38,000 328 440 64
2022-05-11 19:05:39 GMT 45.075485 6.030448 38,000 328 440 64
2022-05-11 19:05:37 GMT 45.066742 6.038230 38,000 328 440 0
2022-05-11 19:05:34 GMT 45.066742 6.038230 38,000 328 440 0
2022-05-11 19:05:31 GMT 45.055164 6.048443 38,000 328 440 0
2022-05-11 19:05:27 GMT 45.055164 6.048443 38,000 328 440 0
2022-05-11 19:05:24 GMT 45.048660 6.054186 38,000 328 440 0
2022-05-11 19:05:20 GMT 45.041573 6.060501 38,000 328 440 -64
2022-05-11 19:05:17 GMT 45.038132 6.063538 38,000 328 440 -64
2022-05-11 19:05:14 GMT 45.031311 6.069554 38,000 328 440 0
2022-05-11 19:05:11 GMT 45.027100 6.073347 38,000 328 439 0
2022-05-11 19:05:09 GMT 45.024487 6.075640 38,000 328 439 0
2022-05-11 19:05:06 GMT 45.020142 6.079494 38,000 328 439 64
2022-05-11 19:05:03 GMT 45.013733 6.085153 38,000 328 439 0
2022-05-11 19:05:00 GMT 45.009338 6.089107 38,000 328 438 0
2022-05-11 19:04:57 GMT 45.002701 6.094933 38,000 328 438 0
2022-05-11 19:04:52 GMT 44.988968 6.107091 38,000 328 438 0
2022-05-11 19:04:49 GMT 44.988968 6.107091 38,000 328 438 0
2022-05-11 19:04:46 GMT 44.985428 6.110207 38,000 328 438 0
2022-05-11 19:04:43 GMT 44.977341 6.117292 38,000 328 438 0
2022-05-11 19:04:39 GMT 44.972397 6.121674 38,000 328 438 64
2022-05-11 19:04:36 GMT 44.967819 6.125728 38,000 328 438 64
2022-05-11 19:04:32 GMT 44.960449 6.132202 38,000 328 438 0
2022-05-11 19:04:29 GMT 44.957062 6.135210 38,000 328 438 0
2022-05-11 19:04:26 GMT 44.950104 6.141357 38,000 328 438 0
2022-05-11 19:04:22 GMT 44.943512 6.147112 38,000 328 437 0
2022-05-11 19:04:19 GMT 44.937012 6.152867 38,000 328 437 0
2022-05-11 19:04:16 GMT 44.932873 6.156497 38,000 328 437 0
2022-05-11 19:04:12 GMT 44.925003 6.163464 38,000 328 437 -64
2022-05-11 19:04:09 GMT 44.921371 6.166613 38,000 328 436 -64
2022-05-11 19:04:07 GMT 44.917927 6.169694 38,000 328 436 0
2022-05-11 19:04:04 GMT 44.912659 6.174316 38,000 328 436 0
2022-05-11 19:04:00 GMT 44.905731 6.180412 38,000 328 436 0
2022-05-11 19:03:57 GMT 44.893768 6.190997 38,000 328 436 0
2022-05-11 19:03:53 GMT 44.893768 6.190997 38,000 328 435 0
2022-05-11 19:03:50 GMT 44.888695 6.195485 38,000 328 435 0
2022-05-11 19:03:46 GMT 44.882504 6.200978 38,000 328 435 0
2022-05-11 19:03:43 GMT 44.877914 6.205052 38,000 328 435 0
2022-05-11 19:03:39 GMT 44.871231 6.210938 38,000 328 435 0
2022-05-11 19:03:36 GMT 44.864208 6.217190 38,000 328 435 0
2022-05-11 19:03:33 GMT 44.860794 6.220158 38,000 328 435 0
2022-05-11 19:03:29 GMT 44.854012 6.226167 38,000 328 435 0
2022-05-11 19:03:27 GMT 44.843212 6.235679 38,000 328 435 0
2022-05-11 19:03:23 GMT 44.843212 6.235679 38,000 328 435 0
2022-05-11 19:03:19 GMT 44.836075 6.241935 38,000 328 435 0
2022-05-11 19:03:16 GMT 44.830536 6.246774 38,000 328 435 0
2022-05-11 19:03:13 GMT 44.826080 6.250752 38,000 328 435 0
2022-05-11 19:03:10 GMT 44.820683 6.255508 38,000 328 435 0
2022-05-11 19:03:06 GMT 44.813416 6.261880 38,000 328 435 0
2022-05-11 19:03:03 GMT 44.808380 6.266327 38,000 328 435 0
2022-05-11 19:03:00 GMT 44.801922 6.272055 38,000 328 435 0
2022-05-11 19:02:55 GMT 44.795059 6.278033 38,000 328 435 0
2022-05-11 19:02:50 GMT 44.786224 6.285815 38,000 328 435 0
2022-05-11 19:02:48 GMT 44.782837 6.288823 38,000 328 435 0
2022-05-11 19:02:45 GMT 44.778076 6.293008 38,000 328 435 0
2022-05-11 19:02:39 GMT 44.768028 6.301865 38,000 328 435 0
2022-05-11 19:02:37 GMT 44.764679 6.304813 38,000 328 435 0
2022-05-11 19:02:34 GMT 44.759262 6.309618 38,000 328 435 0
2022-05-11 19:02:29 GMT 44.750381 6.317400 38,000 328 435 0
2022-05-11 19:02:27 GMT 44.746902 6.320474 38,000 328 435 0
2022-05-11 19:02:24 GMT 44.743423 6.323547 38,000 328 435 0
2022-05-11 19:02:19 GMT 44.731579 6.333953 38,000 328 435 0
2022-05-11 19:02:15 GMT 44.726131 6.338776 38,000 328 435 0
2022-05-11 19:02:09 GMT 44.717476 6.346346 38,000 328 435 0
2022-05-11 19:02:04 GMT 44.708862 6.353891 38,000 329 436 0
2022-05-11 19:01:59 GMT 44.700119 6.361542 38,000 328 435 64
2022-05-11 19:01:54 GMT 44.691406 6.369190 38,000 329 436 0
2022-05-11 19:01:51 GMT 44.686146 6.373812 38,000 329 436 -64
2022-05-11 19:01:45 GMT 44.666840 6.390708 38,000 329 435 0
2022-05-11 19:01:40 GMT 44.666840 6.390708 38,000 329 435 64
2022-05-11 19:01:37 GMT 44.661751 6.395115 38,000 329 435 0
2022-05-11 19:01:34 GMT 44.652969 6.402740 38,000 329 435 0
2022-05-11 19:01:31 GMT 44.652969 6.402740 38,000 329 435 -64
2022-05-11 19:01:24 GMT 44.639923 6.414119 38,000 329 435 0
2022-05-11 19:01:20 GMT 44.633148 6.420005 38,000 329 435 0
2022-05-11 19:01:17 GMT 44.626282 6.425956 38,000 329 435 0
2022-05-11 19:01:13 GMT 44.620319 6.431088 38,000 329 435 0
2022-05-11 19:01:08 GMT 44.612778 6.437596 38,000 329 435 0
2022-05-11 19:01:03 GMT 44.604771 6.444486 38,000 329 436 0
2022-05-11 19:01:00 GMT 44.598862 6.449563 38,000 329 436 0
2022-05-11 19:00:57 GMT 44.594624 6.453195 38,000 329 436 0
2022-05-11 19:00:53 GMT 44.586758 6.459961 38,000 329 436 0
2022-05-11 19:00:50 GMT 44.581543 6.464449 38,000 329 435 64
2022-05-11 19:00:47 GMT 44.576096 6.469072 38,000 329 435 0
2022-05-11 19:00:44 GMT 44.569065 6.475034 38,000 329 435 0
2022-05-11 19:00:40 GMT 44.564831 6.478718 38,000 329 436 0
2022-05-11 19:00:36 GMT 44.557800 6.484680 38,000 329 436 0
2022-05-11 19:00:33 GMT 44.552536 6.489192 38,000 329 436 0
2022-05-11 19:00:28 GMT 44.543648 6.496738 38,000 329 436 0
2022-05-11 19:00:23 GMT 44.535316 6.503839 38,000 329 436 0
2022-05-11 19:00:18 GMT 44.527725 6.510315 38,000 329 436 0
2022-05-11 19:00:13 GMT 44.517998 6.518644 38,000 329 436 -64
2022-05-11 19:00:08 GMT 44.509369 6.526140 38,000 329 436 0
2022-05-11 19:00:03 GMT 44.500626 6.533792 38,000 328 436 0
2022-05-11 19:00:00 GMT 44.495453 6.538304 38,000 328 435 64
2022-05-11 18:59:51 GMT 44.481735 6.550799 38,000 327 436 0
2022-05-11 18:59:41 GMT 44.464790 6.566475 38,000 327 436 0
2022-05-11 18:59:36 GMT 44.454987 6.575514 38,000 327 436 0
2022-05-11 18:59:33 GMT 44.449799 6.580342 38,000 327 435 0
2022-05-11 18:59:30 GMT 44.446400 6.583490 38,000 327 435 0
2022-05-11 18:59:27 GMT 44.441002 6.588447 38,000 327 435 0
2022-05-11 18:59:24 GMT 44.434250 6.594677 38,000 327 435 0
2022-05-11 18:59:21 GMT 44.430573 6.598094 38,000 327 435 0
2022-05-11 18:59:15 GMT 44.418514 6.609281 38,000 327 435 0
2022-05-11 18:59:11 GMT 44.413513 6.613900 38,000 327 435 0
2022-05-11 18:59:07 GMT 44.407883 6.619067 38,000 327 435 0
2022-05-11 18:59:04 GMT 44.400970 6.625410 38,000 327 435 0
2022-05-11 18:59:00 GMT 44.395569 6.630445 38,000 327 435 0
2022-05-11 18:58:57 GMT 44.389748 6.635809 38,000 327 435 0
2022-05-11 18:58:53 GMT 44.381229 6.643647 38,000 327 435 0
2022-05-11 18:58:50 GMT 44.378677 6.646075 38,000 327 435 0
2022-05-11 18:58:47 GMT 44.372864 6.651372 38,000 327 435 64
2022-05-11 18:58:40 GMT 44.361023 6.662337 38,000 327 435 0
2022-05-11 18:58:32 GMT 44.346680 6.675568 38,000 327 436 0
2022-05-11 18:58:28 GMT 44.341599 6.680276 38,000 327 436 0
2022-05-11 18:58:22 GMT 44.332031 6.689039 38,000 327 436 0
2022-05-11 18:58:19 GMT 44.325760 6.694794 38,000 327 436 -64
2022-05-11 18:58:16 GMT 44.320850 6.699383 38,000 327 436 0
2022-05-11 18:58:09 GMT 44.308868 6.710358 38,000 327 436 0
2022-05-11 18:58:06 GMT 44.304092 6.714790 38,000 327 436 0
2022-05-11 18:57:59 GMT 44.285339 6.732003 38,000 327 436 0
2022-05-11 18:57:55 GMT 44.285339 6.732003 38,000 327 436 0
2022-05-11 18:57:51 GMT 44.278610 6.738150 38,000 327 436 0
2022-05-11 18:57:48 GMT 44.274250 6.742189 38,000 327 436 0
2022-05-11 18:57:44 GMT 44.268246 6.747682 38,000 327 436 0
2022-05-11 18:57:38 GMT 44.256794 6.758200 38,000 327 436 0
2022-05-11 18:57:34 GMT 44.251579 6.762956 38,000 327 436 0
2022-05-11 18:57:30 GMT 44.244831 6.769119 38,000 327 436 0
2022-05-11 18:57:25 GMT 44.236172 6.777091 38,000 327 436 0
2022-05-11 18:57:22 GMT 44.230957 6.781834 38,000 327 436 0
2022-05-11 18:57:15 GMT 44.219330 6.792494 38,000 327 435 0
2022-05-11 18:57:05 GMT 44.201614 6.808711 38,000 327 435 0
2022-05-11 18:57:02 GMT 44.195572 6.814205 38,000 327 435 64
2022-05-11 18:56:55 GMT 44.184685 6.824145 38,000 327 435 0
2022-05-11 18:56:50 GMT 44.177097 6.831076 38,000 327 435 0
2022-05-11 18:56:47 GMT 44.170258 6.837329 38,000 327 435 0
2022-05-11 18:56:44 GMT 44.167599 6.839774 38,000 327 435 0
2022-05-11 18:56:36 GMT 44.153400 6.852722 38,000 327 435 0
2022-05-11 18:56:33 GMT 44.148701 6.856973 38,000 327 435 0
2022-05-11 18:56:29 GMT 44.139450 6.865433 38,000 327 435 0
2022-05-11 18:56:24 GMT 44.133408 6.870990 38,000 327 434 0
2022-05-11 18:56:21 GMT 44.127548 6.876292 38,000 327 434 0
2022-05-11 18:56:15 GMT 44.117790 6.885223 38,000 327 434 0
2022-05-11 18:56:11 GMT 44.111801 6.890663 38,000 327 434 0
2022-05-11 18:56:06 GMT 44.102940 6.898760 38,000 327 434 0
2022-05-11 18:56:02 GMT 44.095398 6.905627 38,000 327 434 0
2022-05-11 18:55:58 GMT 44.087814 6.912572 38,000 327 434 0
2022-05-11 18:55:55 GMT 44.084316 6.915763 38,000 327 434 0
2022-05-11 18:55:52 GMT 44.077335 6.922106 38,000 327 434 0
2022-05-11 18:55:47 GMT 44.070351 6.928449 38,000 327 434 0
2022-05-11 18:55:43 GMT 44.063736 6.934481 38,000 327 434 0
2022-05-11 18:55:40 GMT 44.059433 6.938441 38,000 327 434 64
2022-05-11 18:55:36 GMT 44.049961 6.947021 38,000 327 434 64
2022-05-11 18:55:33 GMT 44.047215 6.949506 38,000 327 434 64
2022-05-11 18:55:30 GMT 44.043137 6.953260 38,000 327 434 0
2022-05-11 18:55:27 GMT 44.036739 6.959054 38,000 327 434 0
2022-05-11 18:55:24 GMT 44.031693 6.963671 38,000 327 434 0
2022-05-11 18:55:20 GMT 44.025513 6.969292 38,000 327 434 0
2022-05-11 18:55:17 GMT 44.018555 6.975616 38,000 327 434 0
2022-05-11 18:55:13 GMT 44.013657 6.980087 38,000 327 434 0
2022-05-11 18:55:08 GMT 44.005508 6.987496 38,000 327 434 0
2022-05-11 18:55:03 GMT 43.997910 6.994395 38,000 327 434 0
2022-05-11 18:54:58 GMT 43.988388 7.003082 38,000 327 434 0
2022-05-11 18:54:53 GMT 43.980560 7.010172 38,000 327 434 0
2022-05-11 18:54:48 GMT 43.971569 7.018302 38,000 327 434 0
2022-05-11 18:54:43 GMT 43.961746 7.027261 38,000 327 434 0
2022-05-11 18:54:39 GMT 43.956390 7.032100 38,000 327 434 0
2022-05-11 18:54:32 GMT 43.944809 7.042620 38,000 327 434 64
2022-05-11 18:54:28 GMT 43.938377 7.048383 38,000 327 434 64
2022-05-11 18:54:26 GMT 43.934784 7.051690 38,000 327 434 0
2022-05-11 18:54:22 GMT 43.926182 7.059435 38,000 327 434 0
2022-05-11 18:54:17 GMT 43.912910 7.071468 38,000 327 434 0
2022-05-11 18:54:13 GMT 43.912910 7.071468 38,000 327 434 0
2022-05-11 18:54:08 GMT 43.904999 7.078596 38,000 327 434 0
2022-05-11 18:54:03 GMT 43.895733 7.086901 38,000 327 434 0
2022-05-11 18:53:58 GMT 43.887959 7.093964 38,000 327 434 0
2022-05-11 18:53:54 GMT 43.875137 7.105535 38,000 327 434 0
2022-05-11 18:53:51 GMT 43.875137 7.105535 38,000 327 434 0
2022-05-11 18:53:47 GMT 43.869049 7.110965 38,000 327 434 0
2022-05-11 18:53:44 GMT 43.864033 7.115544 38,000 327 434 0
2022-05-11 18:53:41 GMT 43.858612 7.120354 38,000 327 434 0
2022-05-11 18:53:37 GMT 43.851883 7.126486 38,000 327 434 0
2022-05-11 18:53:34 GMT 43.846298 7.131468 38,000 327 434 0
2022-05-11 18:53:31 GMT 43.840164 7.137025 38,000 327 434 0
2022-05-11 18:53:26 GMT 43.832890 7.143598 38,000 327 434 0
2022-05-11 18:53:23 GMT 43.829681 7.146479 38,000 327 434 0
2022-05-11 18:53:20 GMT 43.823765 7.151838 38,000 327 434 0
2022-05-11 18:53:17 GMT 43.818604 7.156443 38,000 327 435 -64
2022-05-11 18:53:13 GMT 43.806793 7.167110 38,000 327 435 -64
2022-05-11 18:53:10 GMT 43.806793 7.167110 38,000 327 435 0
2022-05-11 18:53:07 GMT 43.802628 7.170815 38,000 327 435 0
2022-05-11 18:53:05 GMT 43.799137 7.174007 38,000 327 435 -64
2022-05-11 18:53:02 GMT 43.793289 7.179246 38,000 327 435 -64
2022-05-11 18:52:59 GMT 43.788895 7.183206 38,000 327 435 0
2022-05-11 18:52:56 GMT 43.781891 7.189530 38,000 328 435 0
2022-05-11 18:52:52 GMT 43.776810 7.194065 38,000 327 435 0
2022-05-11 18:52:49 GMT 43.771812 7.198530 38,000 327 435 0
2022-05-11 18:52:46 GMT 43.766506 7.203304 38,000 327 435 64
2022-05-11 18:52:42 GMT 43.758965 7.210105 38,000 327 435 0
2022-05-11 18:52:39 GMT 43.754448 7.214159 38,000 327 435 0
2022-05-11 18:52:35 GMT 43.747559 7.220372 38,000 327 435 0
2022-05-11 18:52:31 GMT 43.741413 7.225865 38,000 327 435 0
2022-05-11 18:52:28 GMT 43.736526 7.230246 38,000 327 435 0
2022-05-11 18:52:25 GMT 43.731262 7.235008 38,000 327 435 0
2022-05-11 18:52:21 GMT 43.724701 7.240840 38,000 327 435 -64
2022-05-11 18:52:17 GMT 43.717670 7.247184 38,000 327 435 64
2022-05-11 18:52:14 GMT 43.713455 7.250977 38,000 327 435 0
2022-05-11 18:52:11 GMT 43.706314 7.257364 38,000 327 435 -64
2022-05-11 18:52:06 GMT 43.700180 7.262857 38,000 327 435 0
2022-05-11 18:52:03 GMT 43.693466 7.268895 38,000 327 435 0
2022-05-11 18:52:00 GMT 43.690018 7.271991 38,000 327 435 0
2022-05-11 18:51:56 GMT 43.683289 7.277995 38,000 327 435 0
2022-05-11 18:51:53 GMT 43.678104 7.282628 38,000 327 435 0
2022-05-11 18:51:49 GMT 43.670105 7.289812 38,000 327 435 0
2022-05-11 18:51:46 GMT 43.666744 7.292829 38,000 327 435 0
2022-05-11 18:51:40 GMT 43.656097 7.302395 38,000 327 436 0
2022-05-11 18:51:36 GMT 43.649891 7.307935 38,000 327 436 0
2022-05-11 18:51:33 GMT 43.642639 7.314403 38,000 327 436 0
2022-05-11 18:51:30 GMT 43.637138 7.319314 38,000 327 436 0
2022-05-11 18:51:27 GMT 43.633621 7.322515 38,000 327 436 0
2022-05-11 18:51:21 GMT 43.623917 7.331202 38,000 327 436 0
2022-05-11 18:51:18 GMT 43.618195 7.336312 38,000 327 436 0
2022-05-11 18:51:15 GMT 43.612976 7.340960 38,000 327 436 0
2022-05-11 18:51:13 GMT 43.608925 7.344557 38,000 327 436 0
2022-05-11 18:51:10 GMT 43.604736 7.348321 38,000 327 436 0
2022-05-11 18:51:07 GMT 43.598190 7.354197 38,000 327 436 0
2022-05-11 18:51:03 GMT 43.590958 7.360648 38,000 327 436 0
2022-05-11 18:51:00 GMT 43.581299 7.369335 38,000 327 436 0
2022-05-11 18:50:57 GMT 43.581299 7.369335 38,000 327 436 0
2022-05-11 18:50:50 GMT 43.570518 7.378954 38,000 327 436 0
2022-05-11 18:50:46 GMT 43.563766 7.384984 38,000 327 436 0
2022-05-11 18:50:42 GMT 43.556900 7.391116 38,000 327 436 0
2022-05-11 18:50:38 GMT 43.549339 7.397919 38,000 327 436 0
2022-05-11 18:50:35 GMT 43.545685 7.401144 38,000 327 437 0
2022-05-11 18:50:31 GMT 43.539047 7.407085 38,000 327 436 0
2022-05-11 18:50:28 GMT 43.533417 7.412175 38,000 327 436 0
2022-05-11 18:50:25 GMT 43.527088 7.417799 38,000 327 436 -64
2022-05-11 18:50:21 GMT 43.521317 7.422965 38,000 328 437 0
2022-05-11 18:50:18 GMT 43.516380 7.427346 38,000 328 437 0
2022-05-11 18:50:15 GMT 43.510345 7.432762 38,000 328 437 0
2022-05-11 18:50:12 GMT 43.506866 7.435828 38,000 327 437 0
2022-05-11 18:50:09 GMT 43.502136 7.440098 38,000 327 437 0
2022-05-11 18:50:06 GMT 43.493011 7.448273 38,000 328 437 0
2022-05-11 18:49:59 GMT 43.484119 7.456055 38,000 331 438 -64
2022-05-11 18:49:56 GMT 43.479557 7.459913 38,000 331 438 -64
2022-05-11 18:49:54 GMT 43.476254 7.462594 38,000 331 438 -64
2022-05-11 18:49:51 GMT 43.470432 7.467106 38,000 334 437 0
2022-05-11 18:49:48 GMT 43.465965 7.470442 38,000 334 437 0
2022-05-11 18:49:45 GMT 43.457260 7.476458 38,000 335 437 0
2022-05-11 18:49:39 GMT 43.448959 7.481817 38,000 336 435 0
2022-05-11 18:49:36 GMT 43.438778 7.488294 38,000 336 435 64
2022-05-11 18:49:30 GMT 43.432259 7.492414 38,000 336 435 0
2022-05-11 18:49:26 GMT 43.423649 7.497842 38,000 336 435 0
2022-05-11 18:49:23 GMT 43.420063 7.500131 38,000 336 435 0
2022-05-11 18:49:19 GMT 43.411652 7.505451 38,000 336 434 0
2022-05-11 18:49:14 GMT 43.401627 7.511774 38,000 336 434 0
2022-05-11 18:49:09 GMT 43.394924 7.516022 38,000 336 434 0
2022-05-11 18:49:06 GMT 43.385895 7.521776 38,000 336 434 0
2022-05-11 18:48:59 GMT 43.375946 7.528062 38,000 336 434 0
2022-05-11 18:48:56 GMT 43.367645 7.533286 38,000 336 434 0
2022-05-11 18:48:52 GMT 43.362442 7.536557 38,000 336 434 0
2022-05-11 18:48:48 GMT 43.355591 7.540872 38,000 336 434 0
2022-05-11 18:48:44 GMT 43.348000 7.545711 38,000 336 434 0
2022-05-11 18:48:41 GMT 43.342369 7.549242 38,000 336 434 0
2022-05-11 18:48:38 GMT 43.337757 7.552185 38,000 336 434 0
2022-05-11 18:48:35 GMT 43.331543 7.556103 38,000 336 434 0
2022-05-11 18:48:31 GMT 43.324814 7.560318 38,000 336 434 0
2022-05-11 18:48:26 GMT 43.314423 7.566897 38,000 336 434 0
2022-05-11 18:48:24 GMT 43.310760 7.569253 38,000 336 434 0
2022-05-11 18:48:20 GMT 43.305313 7.572719 38,000 336 434 0
2022-05-11 18:48:16 GMT 43.296280 7.578408 38,000 336 434 0
2022-05-11 18:48:12 GMT 43.289612 7.582610 38,000 336 433 0
2022-05-11 18:48:09 GMT 43.285526 7.585209 38,000 336 433 0
2022-05-11 18:48:05 GMT 43.276382 7.590978 38,000 336 433 0
2022-05-11 18:48:00 GMT 43.268600 7.595832 38,000 336 432 0
2022-05-11 18:47:56 GMT 43.261089 7.600577 38,000 336 432 0
2022-05-11 18:47:50 GMT 43.250195 7.607444 38,000 336 432 0
2022-05-11 18:47:47 GMT 43.237949 7.615160 38,000 336 432 0
2022-05-11 18:47:43 GMT 43.237949 7.615160 38,000 336 432 0
2022-05-11 18:47:40 GMT 43.231434 7.619280 38,000 336 432 0
2022-05-11 18:47:36 GMT 43.224472 7.623681 38,000 336 432 0
2022-05-11 18:47:33 GMT 43.219704 7.626670 38,000 336 432 0
2022-05-11 18:47:29 GMT 43.212254 7.631378 38,000 336 432 0
2022-05-11 18:47:26 GMT 43.203918 7.636712 38,000 336 432 0
2022-05-11 18:47:22 GMT 43.199203 7.639714 38,000 336 432 0
2022-05-11 18:47:19 GMT 43.190460 7.645207 38,000 336 432 0
2022-05-11 18:47:17 GMT 43.190460 7.645207 38,000 336 431 0
2022-05-11 18:47:14 GMT 43.183998 7.649296 38,000 336 431 0
2022-05-11 18:47:10 GMT 43.177780 7.653255 38,000 336 431 0
2022-05-11 18:47:07 GMT 43.171616 7.657144 38,000 336 431 0
2022-05-11 18:47:02 GMT 43.155972 7.667018 38,000 336 430 0
2022-05-11 18:46:56 GMT 43.152435 7.669242 38,000 336 430 0
2022-05-11 18:46:53 GMT 43.147018 7.672673 38,000 336 430 0
2022-05-11 18:46:46 GMT 43.132744 7.681667 38,000 336 430 0
2022-05-11 18:46:40 GMT 43.123199 7.687683 38,000 336 429 0
2022-05-11 18:46:36 GMT 43.116451 7.691934 38,000 336 429 0
2022-05-11 18:46:32 GMT 43.109653 7.696250 38,000 336 429 0
2022-05-11 18:46:28 GMT 43.101273 7.701547 38,000 336 429 0
2022-05-11 18:46:25 GMT 43.096294 7.704620 38,000 336 429 0
2022-05-11 18:46:20 GMT 43.084515 7.712075 38,000 336 429 0
2022-05-11 18:46:17 GMT 43.081863 7.713710 38,000 336 429 0
2022-05-11 18:46:14 GMT 43.077072 7.716746 38,000 336 429 0
2022-05-11 18:46:10 GMT 43.068359 7.722146 38,000 336 429 0
2022-05-11 18:46:06 GMT 43.062405 7.725874 38,000 336 428 0
2022-05-11 18:46:02 GMT 43.054955 7.730517 38,000 336 428 0
2022-05-11 18:45:59 GMT 43.048485 7.734571 38,000 336 427 0
2022-05-11 18:45:57 GMT 43.043922 7.737449 38,000 336 427 0
2022-05-11 18:45:54 GMT 43.040222 7.739740 38,000 336 428 0
2022-05-11 18:45:50 GMT 43.032284 7.744707 38,000 336 428 0
2022-05-11 18:45:46 GMT 43.025299 7.749066 38,000 336 428 0
2022-05-11 18:45:42 GMT 43.018272 7.753470 38,000 336 428 0
2022-05-11 18:45:39 GMT 43.013664 7.756348 38,000 336 428 0
2022-05-11 18:45:36 GMT 43.007378 7.760271 38,000 336 427 0
2022-05-11 18:45:32 GMT 42.999325 7.765307 38,000 336 427 0
2022-05-11 18:45:28 GMT 42.994671 7.768250 38,000 336 427 0
2022-05-11 18:45:25 GMT 42.988907 7.771869 38,000 336 426 0
2022-05-11 18:45:22 GMT 42.982754 7.775705 38,000 336 426 0
2022-05-11 18:45:19 GMT 42.976746 7.779497 38,000 336 426 0
2022-05-11 18:45:15 GMT 42.971066 7.783029 38,000 336 426 0
2022-05-11 18:45:12 GMT 42.964920 7.786879 38,000 336 426 0
2022-05-11 18:45:08 GMT 42.957287 7.791661 38,000 336 426 0
2022-05-11 18:45:03 GMT 42.948349 7.797227 38,000 336 426 0
2022-05-11 18:44:59 GMT 42.938992 7.803040 38,000 336 426 0
2022-05-11 18:44:54 GMT 42.933380 7.806616 38,000 336 426 0
2022-05-11 18:44:51 GMT 42.927155 7.810449 38,000 336 426 0
2022-05-11 18:44:48 GMT 42.922623 7.813323 38,000 336 426 0
2022-05-11 18:44:45 GMT 42.916122 7.817411 38,000 336 426 0
2022-05-11 18:44:41 GMT 42.908875 7.821873 38,000 336 426 0
2022-05-11 18:44:38 GMT 42.904495 7.824629 38,000 336 426 0
2022-05-11 18:44:35 GMT 42.898270 7.828525 38,000 336 426 0
2022-05-11 18:44:32 GMT 42.891220 7.832869 38,000 336 426 0
2022-05-11 18:44:28 GMT 42.886574 7.835802 38,000 336 426 0
2022-05-11 18:44:24 GMT 42.879501 7.840150 38,000 336 425 0
2022-05-11 18:44:18 GMT 42.868561 7.846921 38,000 336 425 0
2022-05-11 18:44:14 GMT 42.861485 7.851301 38,000 336 425 0
2022-05-11 18:44:11 GMT 42.854965 7.855355 38,000 336 425 0
2022-05-11 18:44:08 GMT 42.850590 7.858102 38,000 336 425 0
2022-05-11 18:44:03 GMT 42.841839 7.863530 38,000 336 424 0
2022-05-11 18:43:59 GMT 42.833691 7.868631 38,000 336 424 0
2022-05-11 18:43:54 GMT 42.819580 7.877389 38,000 336 424 0
2022-05-11 18:43:51 GMT 42.819580 7.877389 38,000 336 424 0
2022-05-11 18:43:48 GMT 42.815117 7.880205 38,000 336 424 0
2022-05-11 18:43:43 GMT 42.806503 7.885565 38,000 336 424 0
2022-05-11 18:43:37 GMT 42.795704 7.892272 38,000 336 424 0
2022-05-11 18:43:33 GMT 42.788490 7.896743 38,000 336 424 0
2022-05-11 18:43:28 GMT 42.779411 7.902364 38,000 336 424 0
2022-05-11 18:43:24 GMT 42.772064 7.906973 38,000 336 424 0
2022-05-11 18:43:21 GMT 42.764145 7.911842 38,000 336 424 0
2022-05-11 18:43:17 GMT 42.760300 7.914214 38,000 336 424 0
2022-05-11 18:43:13 GMT 42.752598 7.919035 38,000 336 424 0
2022-05-11 18:43:09 GMT 42.745895 7.923123 38,000 336 424 64
2022-05-11 18:43:04 GMT 42.736259 7.929063 38,000 336 424 64
2022-05-11 18:43:02 GMT 42.731918 7.931754 38,000 336 424 0
2022-05-11 18:42:58 GMT 42.725319 7.935834 38,000 336 423 0
2022-05-11 18:42:53 GMT 42.717449 7.940752 38,000 336 423 0
2022-05-11 18:42:50 GMT 42.710560 7.945031 38,000 336 423 0
2022-05-11 18:42:47 GMT 42.706184 7.947714 38,000 336 423 0
2022-05-11 18:42:42 GMT 42.697155 7.953335 38,000 336 423 64
2022-05-11 18:42:38 GMT 42.687241 7.959470 38,000 336 423 0
2022-05-11 18:42:30 GMT 42.675201 7.966961 38,000 336 423 0
2022-05-11 18:42:27 GMT 42.670074 7.970144 38,000 336 423 0
2022-05-11 18:42:22 GMT 42.661636 7.975435 38,000 336 423 0
2022-05-11 18:42:17 GMT 42.651810 7.981505 38,000 336 423 0
2022-05-11 18:42:13 GMT 42.643021 7.986998 38,000 336 423 0
2022-05-11 18:42:10 GMT 42.638359 7.989935 38,000 336 423 0
2022-05-11 18:42:07 GMT 42.634872 7.992054 38,000 336 423 0
2022-05-11 18:42:02 GMT 42.625168 7.998109 38,000 336 423 0
2022-05-11 18:41:59 GMT 42.620438 8.001049 38,000 336 423 0
2022-05-11 18:41:56 GMT 42.616104 8.003727 38,000 336 423 0
2022-05-11 18:41:53 GMT 42.609917 8.007564 38,000 336 424 0
2022-05-11 18:41:50 GMT 42.604568 8.010906 38,000 336 424 0
2022-05-11 18:41:47 GMT 42.599255 8.014143 38,000 336 424 0
2022-05-11 18:41:45 GMT 42.594818 8.016898 38,000 336 425 0
2022-05-11 18:41:41 GMT 42.589199 8.020403 38,000 336 424 0
2022-05-11 18:41:37 GMT 42.580765 8.025575 38,000 336 424 0
2022-05-11 18:41:32 GMT 42.571648 8.031197 38,000 336 425 0
2022-05-11 18:41:27 GMT 42.563141 8.036437 38,000 336 425 0
2022-05-11 18:41:23 GMT 42.555309 8.041226 38,000 336 425 0
2022-05-11 18:41:17 GMT 42.545067 8.047549 38,000 336 425 0
2022-05-11 18:41:12 GMT 42.536549 8.052787 38,000 336 425 0
2022-05-11 18:41:07 GMT 42.527023 8.058597 38,000 336 425 0
2022-05-11 18:41:03 GMT 42.518162 8.064093 38,000 336 426 0
2022-05-11 18:40:56 GMT 42.507500 8.070608 38,000 336 426 0
2022-05-11 18:40:52 GMT 42.500519 8.074887 38,000 336 426 64
2022-05-11 18:40:48 GMT 42.493443 8.079295 38,000 336 426 0
2022-05-11 18:40:41 GMT 42.480331 8.087311 38,000 336 426 0
2022-05-11 18:40:38 GMT 42.475750 8.090089 38,000 336 426 0
2022-05-11 18:40:31 GMT 42.462524 8.098235 38,000 336 426 0
2022-05-11 18:40:28 GMT 42.457077 8.101543 38,000 336 426 0
2022-05-11 18:40:21 GMT 42.444580 8.109159 38,000 336 427 0
2022-05-11 18:40:17 GMT 42.438263 8.113029 38,000 336 427 0
2022-05-11 18:40:14 GMT 42.432770 8.116337 38,000 336 427 0
2022-05-11 18:40:10 GMT 42.426220 8.120366 38,000 336 428 0
2022-05-11 18:40:07 GMT 42.419952 8.124202 38,000 336 428 0
2022-05-11 18:40:01 GMT 42.408325 8.131319 38,000 336 428 0
2022-05-11 18:39:58 GMT 42.402805 8.134673 38,000 336 428 0
2022-05-11 18:39:54 GMT 42.397247 8.138060 38,000 336 428 0
2022-05-11 18:39:51 GMT 42.391846 8.141431 38,000 336 428 0
2022-05-11 18:39:48 GMT 42.383392 8.146618 38,000 336 428 0
2022-05-11 18:39:44 GMT 42.377884 8.149983 38,000 336 428 0
2022-05-11 18:39:40 GMT 42.371613 8.153836 38,000 336 428 0
2022-05-11 18:39:37 GMT 42.365936 8.157286 38,000 336 428 0
2022-05-11 18:39:32 GMT 42.347454 8.168590 38,000 336 429 0
2022-05-11 18:39:27 GMT 42.347454 8.168590 38,000 336 429 64
2022-05-11 18:39:22 GMT 42.338654 8.173953 38,000 336 429 64
2022-05-11 18:39:16 GMT 42.327530 8.180695 38,000 336 429 0
2022-05-11 18:39:11 GMT 42.318787 8.186063 38,000 336 429 -64
2022-05-11 18:39:07 GMT 42.310913 8.190807 38,000 336 429 0
2022-05-11 18:38:59 GMT 42.295258 8.200358 38,000 336 429 0
2022-05-11 18:38:56 GMT 42.292603 8.201981 38,000 336 429 64
2022-05-11 18:38:52 GMT 42.283173 8.207723 38,000 336 430 0
2022-05-11 18:38:49 GMT 42.278458 8.210657 38,000 336 430 0
2022-05-11 18:38:46 GMT 42.274109 8.213279 38,000 336 430 0
2022-05-11 18:38:41 GMT 42.263100 8.220009 38,000 336 430 0
2022-05-11 18:38:37 GMT 42.255745 8.224480 38,000 336 430 0
2022-05-11 18:38:30 GMT 42.245178 8.230868 38,000 336 430 -64
2022-05-11 18:38:26 GMT 42.237778 8.235403 38,000 336 430 0
2022-05-11 18:38:20 GMT 42.226791 8.242046 38,000 336 430 0
2022-05-11 18:38:18 GMT 42.221512 8.245302 38,000 336 431 0
2022-05-11 18:38:15 GMT 42.217621 8.247666 38,000 336 430 0
2022-05-11 18:38:11 GMT 42.210217 8.252138 38,000 336 430 -64
2022-05-11 18:38:05 GMT 42.199093 8.258908 38,000 336 430 -64
2022-05-11 18:38:01 GMT 42.192444 8.262967 38,000 336 431 0
2022-05-11 18:37:56 GMT 42.182240 8.269192 38,000 336 431 0
2022-05-11 18:37:51 GMT 42.174042 8.274141 38,000 336 431 0
2022-05-11 18:37:45 GMT 42.162918 8.280945 38,000 336 431 0
2022-05-11 18:37:41 GMT 42.155365 8.285564 38,000 336 431 0
2022-05-11 18:37:35 GMT 42.145386 8.291557 38,000 336 431 0
2022-05-11 18:37:30 GMT 42.136368 8.297050 38,000 336 431 0
2022-05-11 18:37:26 GMT 42.126888 8.302854 38,000 336 431 0
2022-05-11 18:37:21 GMT 42.118557 8.307900 38,000 336 430 0
2022-05-11 18:37:15 GMT 42.108593 8.313968 38,000 336 430 0
2022-05-11 18:37:11 GMT 42.100773 8.318758 38,000 336 430 0
2022-05-11 18:37:05 GMT 42.090206 8.325210 38,000 336 430 0
2022-05-11 18:37:01 GMT 42.082764 8.329697 38,000 336 431 0
2022-05-11 18:36:54 GMT 42.071117 8.336835 38,000 336 430 0
2022-05-11 18:36:50 GMT 42.062988 8.341807 38,000 336 431 0
2022-05-11 18:36:44 GMT 42.053238 8.347674 38,000 336 431 0
2022-05-11 18:36:40 GMT 42.045284 8.352548 38,000 336 431 0
2022-05-11 18:36:37 GMT 42.040100 8.355664 38,000 336 431 0
2022-05-11 18:36:34 GMT 42.034653 8.358973 38,000 336 431 0
2022-05-11 18:36:30 GMT 42.027779 8.363151 38,000 336 431 0
2022-05-11 18:36:23 GMT 42.014465 8.371207 38,000 336 431 0
2022-05-11 18:36:20 GMT 42.009750 8.374079 38,000 336 431 0
2022-05-11 18:36:15 GMT 41.998123 8.381035 38,000 336 431 0
2022-05-11 18:36:09 GMT 41.988785 8.386688 38,000 336 431 0
2022-05-11 18:36:04 GMT 41.978897 8.392660 38,000 336 431 0
2022-05-11 18:36:00 GMT 41.972076 8.396801 38,000 336 431 0
2022-05-11 18:35:54 GMT 41.961163 8.403391 38,000 336 430 0
2022-05-11 18:35:50 GMT 41.953995 8.407671 38,000 336 430 0
2022-05-11 18:35:44 GMT 41.943241 8.414122 38,000 336 430 0
2022-05-11 18:35:40 GMT 41.935959 8.418524 38,000 336 430 0
2022-05-11 18:35:34 GMT 41.925037 8.425045 38,000 336 429 0
2022-05-11 18:35:30 GMT 41.917496 8.429580 38,000 336 429 0
2022-05-11 18:35:23 GMT 41.906044 8.436414 38,000 336 429 0
2022-05-11 18:35:20 GMT 41.898968 8.440630 38,000 336 429 0
2022-05-11 18:35:13 GMT 41.887207 8.447737 38,000 336 429 0
2022-05-11 18:35:10 GMT 41.881119 8.451358 38,000 336 429 0
2022-05-11 18:35:04 GMT 41.868851 8.458724 38,000 336 429 0
2022-05-11 18:34:59 GMT 41.861710 8.462968 38,000 336 429 0
2022-05-11 18:34:54 GMT 41.850834 8.469501 38,000 336 428 0
2022-05-11 18:34:49 GMT 41.843433 8.473908 38,000 336 428 0
2022-05-11 18:34:43 GMT 41.832779 8.480322 38,000 336 428 0
2022-05-11 18:34:39 GMT 41.826324 8.484192 38,000 336 428 0
2022-05-11 18:34:33 GMT 41.814240 8.491495 38,000 336 428 0
2022-05-11 18:34:29 GMT 41.807877 8.495303 38,000 336 428 0
2022-05-11 18:34:22 GMT 41.795483 8.502715 38,000 336 428 0
2022-05-11 18:34:19 GMT 41.789108 8.506539 38,000 336 428 0
2022-05-11 18:34:12 GMT 41.777115 8.513780 38,000 336 428 -64
2022-05-11 18:34:08 GMT 41.770615 8.517713 38,000 336 428 -64
2022-05-11 18:34:03 GMT 41.757935 8.525328 38,000 336 427 0
2022-05-11 18:33:58 GMT 41.752609 8.528520 38,000 336 427 0
2022-05-11 18:33:52 GMT 41.741249 8.535355 38,000 336 427 0
2022-05-11 18:33:49 GMT 41.734875 8.539187 38,000 336 427 0
2022-05-11 18:33:43 GMT 41.716827 8.549985 38,000 336 427 0
2022-05-11 18:33:39 GMT 41.716827 8.549985 38,000 336 427 0
2022-05-11 18:33:32 GMT 41.704880 8.557164 38,000 336 426 0
2022-05-11 18:33:29 GMT 41.698750 8.560841 38,000 336 426 0
2022-05-11 18:33:19 GMT 41.680710 8.571583 38,000 336 426 0
2022-05-11 18:33:12 GMT 41.668533 8.578824 38,000 336 426 0
2022-05-11 18:33:09 GMT 41.662670 8.582302 38,000 336 426 0
2022-05-11 18:33:02 GMT 41.643955 8.593480 38,000 336 423 0
2022-05-11 18:32:59 GMT 41.643955 8.593480 38,000 336 425 0
2022-05-11 18:32:49 GMT 41.626034 8.604147 38,000 336 424 0
2022-05-11 18:32:42 GMT 41.613190 8.611846 38,000 336 424 0
2022-05-11 18:32:38 GMT 41.607784 8.615070 38,000 336 423 0
2022-05-11 18:32:31 GMT 41.595215 8.622607 38,000 336 423 0
2022-05-11 18:32:28 GMT 41.589844 8.625766 38,000 336 423 0
2022-05-11 18:32:21 GMT 41.577202 8.633274 38,000 336 423 0
2022-05-11 18:32:18 GMT 41.572540 8.636128 38,000 336 422 0
2022-05-11 18:32:11 GMT 41.558167 8.644617 38,000 336 422 0
2022-05-11 18:32:08 GMT 41.554577 8.646815 38,000 336 422 0
2022-05-11 18:31:58 GMT 41.536095 8.657801 38,000 336 422 0
2022-05-11 18:31:48 GMT 41.518452 8.668341 38,000 336 421 0
2022-05-11 18:31:40 GMT 41.503460 8.677219 38,000 336 421 0
2022-05-11 18:31:37 GMT 41.498749 8.680011 38,000 337 421 0
2022-05-11 18:31:31 GMT 41.486984 8.687002 38,000 337 421 0
2022-05-11 18:31:28 GMT 41.482086 8.689873 38,000 336 420 0
2022-05-11 18:31:21 GMT 41.468124 8.698113 38,000 336 420 0
2022-05-11 18:31:18 GMT 41.463799 8.700661 38,000 336 420 0
2022-05-11 18:31:08 GMT 41.446110 8.711136 38,000 336 419 0
2022-05-11 18:30:57 GMT 41.428574 8.721522 38,000 336 419 0
2022-05-11 18:30:47 GMT 41.410591 8.732215 38,000 336 419 0
2022-05-11 18:30:40 GMT 41.397263 8.740061 38,000 336 419 0
2022-05-11 18:30:37 GMT 41.392456 8.742932 38,000 336 419 0
2022-05-11 18:30:26 GMT 41.372650 8.754668 38,000 336 419 0
2022-05-11 18:30:20 GMT 41.360779 8.761719 38,000 336 419 0
2022-05-11 18:30:17 GMT 41.356064 8.764526 38,000 336 419 0
2022-05-11 18:30:09 GMT 41.342468 8.772583 38,000 336 419 0
2022-05-11 18:30:06 GMT 41.336655 8.776001 38,000 336 419 0
2022-05-11 18:29:59 GMT 41.325119 8.782837 38,000 337 419 0
2022-05-11 18:29:56 GMT 41.320324 8.785692 38,000 337 419 0
2022-05-11 18:29:49 GMT 41.307175 8.793396 38,000 337 419 0
2022-05-11 18:29:46 GMT 41.301750 8.796616 38,000 337 419 0
2022-05-11 18:29:39 GMT 41.289276 8.803955 38,000 337 418 0
2022-05-11 18:29:36 GMT 41.283501 8.807352 38,000 337 418 0
2022-05-11 18:29:29 GMT 41.269909 8.815342 38,000 337 418 0
2022-05-11 18:29:25 GMT 41.265720 8.817777 38,000 337 418 0
2022-05-11 18:29:16 GMT 41.247936 8.828264 38,000 337 418 0
2022-05-11 18:29:09 GMT 41.229584 8.839050 38,000 337 418 0
2022-05-11 18:29:05 GMT 41.229584 8.839050 38,000 337 418 0
2022-05-11 18:28:56 GMT 41.214092 8.848114 38,000 337 417 0
2022-05-11 18:28:46 GMT 41.195938 8.858788 38,000 337 417 0
2022-05-11 18:28:44 GMT 41.193378 8.860286 38,000 337 417 0
2022-05-11 18:28:38 GMT 41.180759 8.867652 38,000 337 417 0
2022-05-11 18:28:35 GMT 41.160557 8.879575 38,000 337 417 0
2022-05-11 18:28:26 GMT 41.160557 8.879575 38,000 337 417 0
2022-05-11 18:28:24 GMT 41.142357 8.890187 38,000 337 417 0
2022-05-11 18:28:16 GMT 41.142357 8.890187 38,000 337 416 0
2022-05-11 18:28:06 GMT 41.121780 8.902297 38,000 337 416 0
2022-05-11 18:27:56 GMT 41.106583 8.911194 38,000 337 416 0
2022-05-11 18:27:54 GMT 41.103699 8.912903 38,000 337 416 0
2022-05-11 18:27:47 GMT 41.085983 8.923279 38,000 337 416 0
2022-05-11 18:27:44 GMT 41.085983 8.923279 38,000 337 416 0
2022-05-11 18:27:35 GMT 41.071735 8.931635 38,000 337 416 0
2022-05-11 18:27:33 GMT 41.067921 8.933820 38,000 337 416 0
2022-05-11 18:27:24 GMT 41.049252 8.944744 38,000 337 416 0
2022-05-11 18:27:17 GMT 41.032074 8.954794 38,000 337 417 0
2022-05-11 18:27:13 GMT 41.032074 8.954794 38,000 337 417 0
2022-05-11 18:27:04 GMT 41.017227 8.963501 38,000 337 418 64
2022-05-11 18:27:02 GMT 41.013565 8.965637 38,000 336 417 64
2022-05-11 18:26:55 GMT 41.000233 8.973520 38,000 336 418 0
2022-05-11 18:26:52 GMT 40.994926 8.976642 38,000 337 418 0
2022-05-11 18:26:45 GMT 40.982895 8.983521 38,000 339 417 0
2022-05-11 18:26:42 GMT 40.977768 8.986267 38,000 342 415 0
2022-05-11 18:26:35 GMT 40.964539 8.992493 38,000 343 414 0
2022-05-11 18:26:33 GMT 40.959595 8.994629 38,000 345 413 0
2022-05-11 18:26:30 GMT 40.955933 8.996094 38,000 345 413 0
2022-05-11 18:26:25 GMT 40.946503 8.999512 38,000 348 412 0
2022-05-11 18:26:20 GMT 40.938858 9.001831 38,000 349 410 0
2022-05-11 18:26:15 GMT 40.927608 9.004981 38,000 349 409 0
2022-05-11 18:26:11 GMT 40.920254 9.006979 38,000 349 409 0
2022-05-11 18:26:04 GMT 40.907043 9.010559 38,000 349 409 0
2022-05-11 18:26:00 GMT 40.899353 9.012634 38,000 349 409 0
2022-05-11 18:25:55 GMT 40.889206 9.015406 38,000 349 410 0
2022-05-11 18:25:51 GMT 40.882645 9.017151 38,000 349 410 0
2022-05-11 18:25:45 GMT 40.870911 9.020275 38,000 349 409 0
2022-05-11 18:25:40 GMT 40.863228 9.022335 38,000 349 409 0
2022-05-11 18:25:34 GMT 40.852203 9.025269 38,000 349 410 0
2022-05-11 18:25:32 GMT 40.845795 9.026978 38,000 349 410 0
2022-05-11 18:25:28 GMT 40.840370 9.028452 38,000 349 410 0
2022-05-11 18:25:24 GMT 40.825706 9.032447 38,000 349 410 0
2022-05-11 18:25:20 GMT 40.825706 9.032447 38,000 349 410 0
2022-05-11 18:25:13 GMT 40.811142 9.036316 38,000 349 410 0
2022-05-11 18:25:10 GMT 40.806427 9.037598 38,000 349 410 0
2022-05-11 18:25:03 GMT 40.793884 9.041016 38,000 349 411 0
2022-05-11 18:25:00 GMT 40.787567 9.042725 38,000 349 411 0
2022-05-11 18:24:54 GMT 40.776779 9.045618 38,000 349 411 0
2022-05-11 18:24:51 GMT 40.771362 9.047058 38,000 349 411 0
2022-05-11 18:24:48 GMT 40.767563 9.048096 38,000 349 411 0
2022-05-11 18:24:44 GMT 40.758671 9.050487 38,000 349 411 0
2022-05-11 18:24:39 GMT 40.749035 9.053109 38,000 349 411 0
2022-05-11 18:24:34 GMT 40.729950 9.058228 38,000 349 411 0
2022-05-11 18:24:29 GMT 40.729950 9.058228 38,000 349 411 0
2022-05-11 18:24:24 GMT 40.720917 9.060600 38,000 349 411 0
2022-05-11 18:24:18 GMT 40.710957 9.063284 38,000 349 411 0
2022-05-11 18:24:14 GMT 40.690933 9.068604 38,000 349 411 0
2022-05-11 18:24:08 GMT 40.690933 9.068604 38,000 349 411 0
2022-05-11 18:24:04 GMT 40.683334 9.070679 38,000 349 411 0
2022-05-11 18:24:01 GMT 40.677704 9.072205 38,000 349 411 0
2022-05-11 18:23:58 GMT 40.672302 9.073608 38,000 349 411 0
2022-05-11 18:23:53 GMT 40.664776 9.075643 38,000 349 411 0
2022-05-11 18:23:49 GMT 40.656189 9.077881 38,000 349 411 0
2022-05-11 18:23:46 GMT 40.651928 9.079077 38,000 349 411 0
2022-05-11 18:23:43 GMT 40.646015 9.080637 38,000 349 411 0
2022-05-11 18:23:41 GMT 40.640385 9.082135 38,000 349 411 0
2022-05-11 18:23:37 GMT 40.633987 9.083801 38,000 349 411 0
2022-05-11 18:23:33 GMT 40.626652 9.085818 38,000 349 411 0
2022-05-11 18:23:28 GMT 40.616501 9.088502 38,000 349 411 0
2022-05-11 18:23:25 GMT 40.611149 9.089938 38,000 349 411 0
2022-05-11 18:23:22 GMT 40.607529 9.090881 38,000 349 411 0
2022-05-11 18:23:16 GMT 40.594994 9.094183 38,000 349 411 0
2022-05-11 18:23:13 GMT 40.589813 9.095581 38,000 349 411 0
2022-05-11 18:23:08 GMT 40.578918 9.098511 38,000 349 411 0
2022-05-11 18:23:05 GMT 40.575863 9.099301 38,000 349 411 0
2022-05-11 18:23:03 GMT 40.570835 9.100612 38,000 349 411 0
2022-05-11 18:22:56 GMT 40.556259 9.104492 38,000 349 411 0
2022-05-11 18:22:53 GMT 40.551792 9.105731 38,000 349 411 0
2022-05-11 18:22:45 GMT 40.537216 9.109619 38,000 349 411 0
2022-05-11 18:22:43 GMT 40.533218 9.110662 38,000 349 411 0
2022-05-11 18:22:37 GMT 40.521973 9.113647 38,000 349 411 0
2022-05-11 18:22:33 GMT 40.513687 9.115845 38,000 349 412 0
2022-05-11 18:22:27 GMT 40.502541 9.118840 38,000 349 412 0
2022-05-11 18:22:23 GMT 40.494999 9.120837 38,000 349 412 0
2022-05-11 18:22:20 GMT 40.490391 9.122023 38,000 349 412 0
2022-05-11 18:22:16 GMT 40.483658 9.123840 38,000 349 411 0
2022-05-11 18:22:13 GMT 40.476006 9.125893 38,000 349 411 0
2022-05-11 18:22:09 GMT 40.470520 9.127319 38,000 349 411 0
2022-05-11 18:22:05 GMT 40.462921 9.129333 38,000 349 411 0
2022-05-11 18:22:02 GMT 40.457340 9.130825 38,000 349 412 0
2022-05-11 18:22:00 GMT 40.452164 9.132202 38,000 349 412 0
2022-05-11 18:21:54 GMT 40.441177 9.135132 38,000 349 411 0
2022-05-11 18:21:52 GMT 40.438301 9.135881 38,000 349 411 0
2022-05-11 18:21:49 GMT 40.431564 9.137695 38,000 349 411 0
2022-05-11 18:21:46 GMT 40.426804 9.138916 38,000 349 411 0
2022-05-11 18:21:42 GMT 40.419617 9.140869 38,000 349 411 0
2022-05-11 18:21:39 GMT 40.414047 9.142310 38,000 349 411 0
2022-05-11 18:21:36 GMT 40.407303 9.144104 38,000 349 411 0
2022-05-11 18:21:32 GMT 40.400871 9.145806 38,000 349 411 0
2022-05-11 18:21:29 GMT 40.395172 9.147339 38,000 349 411 0
2022-05-11 18:21:24 GMT 40.385742 9.149841 38,000 349 411 0
2022-05-11 18:21:21 GMT 40.380386 9.151245 38,000 349 411 0
2022-05-11 18:21:16 GMT 40.368988 9.154236 38,000 349 411 0
2022-05-11 18:21:12 GMT 40.362328 9.156043 38,000 349 411 0
2022-05-11 18:21:03 GMT 40.341751 9.161474 38,000 349 411 0
2022-05-11 18:21:00 GMT 40.341751 9.161474 38,000 349 411 0
2022-05-11 18:20:55 GMT 40.331085 9.164307 38,000 349 411 0
2022-05-11 18:20:52 GMT 40.325409 9.165781 38,000 349 410 64
2022-05-11 18:20:42 GMT 40.306686 9.170776 38,000 349 410 0
2022-05-11 18:20:35 GMT 40.294083 9.174146 38,000 349 410 0
2022-05-11 18:20:32 GMT 40.288330 9.175659 38,000 349 410 0
2022-05-11 18:20:30 GMT 40.285561 9.176393 38,000 349 410 0
2022-05-11 18:20:22 GMT 40.265591 9.181699 38,000 349 410 0
2022-05-11 18:20:19 GMT 40.265591 9.181699 38,000 349 410 0
2022-05-11 18:20:15 GMT 40.255371 9.184448 38,000 349 409 0
2022-05-11 18:20:11 GMT 40.250793 9.185608 38,000 349 409 0
2022-05-11 18:20:09 GMT 40.245762 9.187005 38,000 349 409 0
2022-05-11 18:20:04 GMT 40.237061 9.189270 38,000 349 409 0
2022-05-11 18:20:01 GMT 40.232212 9.190563 38,000 349 409 0
2022-05-11 18:19:59 GMT 40.226898 9.191956 38,000 349 409 0
2022-05-11 18:19:51 GMT 40.213623 9.195496 38,000 349 408 0
2022-05-11 18:19:48 GMT 40.207077 9.197205 38,000 349 408 0
2022-05-11 18:19:44 GMT 40.199295 9.199280 38,000 349 408 0
2022-05-11 18:19:41 GMT 40.194736 9.200488 38,000 349 408 0
2022-05-11 18:19:38 GMT 40.188545 9.202111 38,000 349 408 0
2022-05-11 18:19:31 GMT 40.175884 9.205482 38,000 349 408 0
2022-05-11 18:19:28 GMT 40.169586 9.207153 38,000 349 408 0
2022-05-11 18:19:24 GMT 40.160843 9.209473 38,000 349 408 0
2022-05-11 18:19:21 GMT 40.150234 9.212286 38,000 349 407 0
2022-05-11 18:19:17 GMT 40.150234 9.212286 38,000 349 407 0
2022-05-11 18:19:11 GMT 40.138737 9.215345 38,000 349 407 0
2022-05-11 18:19:07 GMT 40.131409 9.217285 38,000 349 407 0
2022-05-11 18:19:01 GMT 40.120022 9.220338 38,000 349 406 0
2022-05-11 18:18:56 GMT 40.110764 9.222717 38,000 349 406 0
2022-05-11 18:18:50 GMT 40.100655 9.225395 38,000 349 405 0
2022-05-11 18:18:47 GMT 40.093781 9.227173 38,000 349 406 0
2022-05-11 18:18:41 GMT 40.082657 9.230164 38,000 349 406 0
2022-05-11 18:18:36 GMT 40.073654 9.232511 38,000 349 406 0
2022-05-11 18:18:31 GMT 40.064068 9.235008 38,000 349 406 0
2022-05-11 18:18:25 GMT 40.054104 9.237629 38,000 349 405 0
2022-05-11 18:18:21 GMT 40.045677 9.239876 38,000 349 404 0
2022-05-11 18:18:15 GMT 40.036369 9.242311 38,000 349 404 0
2022-05-11 18:18:10 GMT 40.027176 9.244751 38,000 349 404 0
2022-05-11 18:18:05 GMT 40.016163 9.247679 38,000 349 404 0
2022-05-11 18:18:00 GMT 40.008728 9.249634 38,000 349 404 0
2022-05-11 18:17:54 GMT 39.997032 9.252673 38,000 349 404 0
2022-05-11 18:17:49 GMT 39.987946 9.255066 38,000 349 403 0
2022-05-11 18:17:44 GMT 39.978790 9.257446 38,000 349 403 0
2022-05-11 18:17:42 GMT 39.973892 9.258728 38,000 349 403 0
2022-05-11 18:17:39 GMT 39.969147 9.259914 38,000 349 403 0
2022-05-11 18:17:34 GMT 39.959656 9.262329 38,000 349 403 0
2022-05-11 18:17:29 GMT 39.951271 9.264471 38,000 349 403 0
2022-05-11 18:17:26 GMT 39.945824 9.265907 38,000 349 403 0
2022-05-11 18:17:23 GMT 39.941074 9.267093 38,000 349 403 0
2022-05-11 18:17:20 GMT 39.934433 9.268738 38,000 349 403 0
2022-05-11 18:17:18 GMT 39.931065 9.269590 38,000 350 403 0
2022-05-11 18:17:13 GMT 39.922268 9.271790 38,000 350 403 0
2022-05-11 18:17:09 GMT 39.911041 9.274610 38,000 350 403 0
2022-05-11 18:17:03 GMT 39.903030 9.276581 38,000 350 403 64
2022-05-11 18:17:00 GMT 39.897827 9.277893 38,000 350 403 0
2022-05-11 18:16:57 GMT 39.893143 9.279029 38,000 350 403 0
2022-05-11 18:16:53 GMT 39.884655 9.281128 38,000 350 402 0
2022-05-11 18:16:50 GMT 39.879730 9.282373 38,000 349 402 0
2022-05-11 18:16:45 GMT 39.870667 9.284641 38,000 349 402 0
2022-05-11 18:16:42 GMT 39.866272 9.285776 38,000 349 402 0
2022-05-11 18:16:40 GMT 39.860867 9.287170 38,000 349 403 0
2022-05-11 18:16:37 GMT 39.856247 9.288403 38,000 349 403 0
2022-05-11 18:16:32 GMT 39.847046 9.290911 38,000 348 403 0
2022-05-11 18:16:30 GMT 39.842384 9.292175 38,000 348 403 0
2022-05-11 18:16:28 GMT 39.839684 9.292969 38,000 347 404 0
2022-05-11 18:16:21 GMT 39.827534 9.296631 38,000 347 404 0
2022-05-11 18:16:18 GMT 39.822227 9.298279 38,000 347 404 0
2022-05-11 18:16:13 GMT 39.812778 9.301147 38,000 347 404 0
2022-05-11 18:16:10 GMT 39.806213 9.303162 38,000 347 404 0
2022-05-11 18:16:08 GMT 39.803513 9.303987 38,000 347 404 0
2022-05-11 18:16:03 GMT 39.795135 9.306554 38,000 347 404 0
2022-05-11 18:16:00 GMT 39.789314 9.308350 38,000 347 404 0
2022-05-11 18:15:58 GMT 39.784653 9.309779 38,000 347 404 0
2022-05-11 18:15:53 GMT 39.776001 9.312439 38,000 347 405 0
2022-05-11 18:15:49 GMT 39.768311 9.314794 38,000 347 405 0
2022-05-11 18:15:46 GMT 39.763779 9.316167 38,000 347 405 0
2022-05-11 18:15:43 GMT 39.757690 9.318078 38,000 347 405 0
2022-05-11 18:15:39 GMT 39.749908 9.320466 38,000 347 405 0
2022-05-11 18:15:36 GMT 39.745285 9.321899 38,000 347 405 0
2022-05-11 18:15:32 GMT 39.738293 9.324036 38,000 347 405 0
2022-05-11 18:15:29 GMT 39.728897 9.326975 38,000 347 405 0
2022-05-11 18:15:27 GMT 39.728897 9.326975 38,000 347 405 0
2022-05-11 18:15:22 GMT 39.720383 9.329602 38,000 347 405 0
2022-05-11 18:15:19 GMT 39.713947 9.331543 38,000 347 405 0
2022-05-11 18:15:17 GMT 39.710316 9.332703 38,000 347 406 0
2022-05-11 18:15:09 GMT 39.695187 9.337341 38,000 347 406 0
2022-05-11 18:15:05 GMT 39.689072 9.339275 38,000 347 406 0
2022-05-11 18:15:01 GMT 39.681885 9.341484 38,000 347 406 0
2022-05-11 18:14:58 GMT 39.676147 9.343262 38,000 347 406 0
2022-05-11 18:14:56 GMT 39.672607 9.344360 38,000 347 406 0
2022-05-11 18:14:51 GMT 39.662842 9.347335 38,000 347 406 0
2022-05-11 18:14:48 GMT 39.657665 9.348938 38,000 347 407 0
2022-05-11 18:14:46 GMT 39.654686 9.349854 38,000 347 407 0
2022-05-11 18:14:39 GMT 39.641327 9.353943 38,000 347 407 0
2022-05-11 18:14:36 GMT 39.635468 9.355754 38,000 347 407 0
2022-05-11 18:14:29 GMT 39.622330 9.359814 38,000 347 407 0
2022-05-11 18:14:26 GMT 39.616562 9.361605 38,000 347 407 0
2022-05-11 18:14:18 GMT 39.603153 9.365723 38,000 347 407 0
2022-05-11 18:14:16 GMT 39.598450 9.367126 38,000 347 407 0
2022-05-11 18:14:08 GMT 39.585068 9.371278 38,000 347 407 0
2022-05-11 18:14:06 GMT 39.580444 9.372711 38,000 347 407 0
2022-05-11 18:13:59 GMT 39.567493 9.376648 38,000 347 407 -64
2022-05-11 18:13:56 GMT 39.561535 9.378479 38,000 347 407 0
2022-05-11 18:13:49 GMT 39.549152 9.382263 38,000 347 407 0
2022-05-11 18:13:45 GMT 39.542400 9.384338 38,000 347 407 0
2022-05-11 18:13:38 GMT 39.529320 9.388306 38,000 347 406 0
2022-05-11 18:13:35 GMT 39.524246 9.389832 38,000 347 406 0
2022-05-11 18:13:29 GMT 39.511398 9.393738 38,000 347 407 64
2022-05-11 18:13:25 GMT 39.504684 9.395759 38,000 347 407 0
2022-05-11 18:13:17 GMT 39.492737 9.399341 38,000 347 407 0
2022-05-11 18:13:15 GMT 39.486420 9.401192 38,000 347 407 0
2022-05-11 18:13:09 GMT 39.476074 9.404297 38,000 347 407 0
2022-05-11 18:13:05 GMT 39.468105 9.406677 38,000 347 407 0
2022-05-11 18:12:58 GMT 39.455956 9.410278 38,000 347 407 0
2022-05-11 18:12:53 GMT 39.448086 9.412659 38,000 347 407 -64
2022-05-11 18:12:48 GMT 39.438309 9.415641 38,000 347 408 0
2022-05-11 18:12:44 GMT 39.429657 9.418269 38,000 347 409 0
2022-05-11 18:12:37 GMT 39.417686 9.421936 38,000 347 409 0
2022-05-11 18:12:33 GMT 39.410248 9.424239 38,000 347 409 0
2022-05-11 18:12:27 GMT 39.398346 9.427941 38,000 347 409 0
2022-05-11 18:12:23 GMT 39.391621 9.430054 38,000 347 409 0
2022-05-11 18:12:17 GMT 39.381050 9.433289 38,000 347 409 0
2022-05-11 18:12:13 GMT 39.372849 9.435823 38,000 347 410 0
2022-05-11 18:12:07 GMT 39.362385 9.439026 38,000 347 410 -64
2022-05-11 18:12:02 GMT 39.352707 9.441973 38,000 347 410 0
2022-05-11 18:11:57 GMT 39.343140 9.444958 38,000 347 410 0
2022-05-11 18:11:52 GMT 39.334034 9.447754 38,000 347 410 0
2022-05-11 18:11:47 GMT 39.324783 9.450571 38,000 347 411 -64
2022-05-11 18:11:41 GMT 39.314064 9.453857 38,000 347 411 -64
2022-05-11 18:11:36 GMT 39.305283 9.456542 38,000 347 410 -64
2022-05-11 18:11:31 GMT 39.296093 9.459351 38,000 347 410 0
2022-05-11 18:11:25 GMT 39.286503 9.462219 38,000 347 410 64
2022-05-11 18:11:21 GMT 39.277100 9.465088 38,000 347 410 0
2022-05-11 18:11:17 GMT 39.270218 9.467110 38,000 347 410 -128
2022-05-11 18:11:11 GMT 39.258389 9.470703 38,000 347 410 -64
2022-05-11 18:11:07 GMT 39.251591 9.472717 38,025 347 410 128
2022-05-11 18:11:01 GMT 39.239044 9.476484 38,000 347 410 -64
2022-05-11 18:10:57 GMT 39.233047 9.478275 38,025 347 410 -64
2022-05-11 18:10:55 GMT 39.229477 9.479370 38,025 347 410 0
2022-05-11 18:10:50 GMT 39.218025 9.482849 38,000 347 409 64
2022-05-11 18:10:47 GMT 39.214394 9.483948 38,000 347 409 64
2022-05-11 18:10:45 GMT 39.210938 9.484963 38,000 347 409 0
2022-05-11 18:10:39 GMT 39.199497 9.488403 38,000 347 409 0
2022-05-11 18:10:35 GMT 39.191895 9.490755 38,000 347 409 64
2022-05-11 18:10:30 GMT 39.182739 9.493501 38,000 347 410 -64
2022-05-11 18:10:27 GMT 39.177853 9.494995 38,000 347 410 0
2022-05-11 18:10:24 GMT 39.172264 9.496704 38,000 347 410 64
2022-05-11 18:10:19 GMT 39.161419 9.500000 38,000 347 410 0
2022-05-11 18:10:16 GMT 39.157837 9.501144 38,000 347 410 0
2022-05-11 18:10:14 GMT 39.153179 9.502563 38,000 347 410 0
2022-05-11 18:10:09 GMT 39.144058 9.505323 38,000 347 410 0
2022-05-11 18:10:06 GMT 39.139446 9.506775 38,000 347 410 0
2022-05-11 18:10:02 GMT 39.131927 9.509025 38,000 347 410 0
2022-05-11 18:09:57 GMT 39.120941 9.512429 38,000 347 410 0
2022-05-11 18:09:53 GMT 39.114540 9.514343 38,000 347 410 0
2022-05-11 18:09:48 GMT 39.103683 9.517683 38,000 347 409 0
2022-05-11 18:09:43 GMT 39.096909 9.519713 38,000 347 409 0
2022-05-11 18:09:39 GMT 39.088192 9.522339 38,000 347 409 0
2022-05-11 18:09:37 GMT 39.085327 9.523236 38,000 347 409 0
2022-05-11 18:09:32 GMT 39.076599 9.525879 38,000 347 409 0
2022-05-11 18:09:29 GMT 39.069122 9.528132 38,000 347 409 0
2022-05-11 18:09:27 GMT 39.066422 9.528968 38,000 347 410 0
2022-05-11 18:09:21 GMT 39.056072 9.532043 38,000 347 409 0
2022-05-11 18:09:17 GMT 39.046154 9.535034 38,000 347 409 0
2022-05-11 18:09:08 GMT 39.030533 9.539656 38,000 348 409 0
2022-05-11 18:09:06 GMT 39.027580 9.540527 38,000 348 409 0
2022-05-11 18:09:02 GMT 39.020370 9.542641 38,000 348 409 0
2022-05-11 18:08:56 GMT 39.009018 9.545985 38,000 348 409 0
2022-05-11 18:08:51 GMT 38.999863 9.548612 38,000 348 409 0
2022-05-11 18:08:47 GMT 38.993271 9.550537 38,000 348 409 0
2022-05-11 18:08:45 GMT 38.989548 9.551636 38,000 348 409 0
2022-05-11 18:08:42 GMT 38.982880 9.553568 38,000 348 409 64
2022-05-11 18:08:36 GMT 38.972927 9.556396 38,000 348 409 64
2022-05-11 18:08:31 GMT 38.963745 9.559061 38,000 348 410 0
2022-05-11 18:08:27 GMT 38.956264 9.561279 38,000 348 410 0
2022-05-11 18:08:20 GMT 38.942688 9.565211 38,000 347 409 0
2022-05-11 18:08:17 GMT 38.936554 9.567062 38,000 347 409 0
2022-05-11 18:08:15 GMT 38.933872 9.567871 38,000 347 410 0
2022-05-11 18:08:09 GMT 38.922638 9.571301 38,000 347 410 0
2022-05-11 18:08:05 GMT 38.915066 9.573669 38,000 346 411 -64
2022-05-11 18:07:55 GMT 38.896397 9.579773 38,000 346 411 0
2022-05-11 18:07:44 GMT 38.877869 9.585870 38,000 346 412 0
2022-05-11 18:07:35 GMT 38.859898 9.591797 38,000 346 413 0
2022-05-11 18:07:29 GMT 38.848587 9.595459 38,000 346 412 0
2022-05-11 18:07:25 GMT 38.841614 9.597752 38,000 346 412 0
2022-05-11 18:07:17 GMT 38.826233 9.602767 38,000 346 412 0
2022-05-11 18:07:14 GMT 38.821426 9.604320 38,000 346 412 0
2022-05-11 18:07:05 GMT 38.803162 9.610291 38,000 346 412 0
2022-05-11 18:06:53 GMT 38.783707 9.616620 38,000 346 413 -64
2022-05-11 18:06:44 GMT 38.765072 9.622742 38,000 346 412 -64
2022-05-11 18:06:39 GMT 38.755714 9.625793 38,025 346 412 0
2022-05-11 18:06:33 GMT 38.745193 9.629272 38,025 346 412 0
2022-05-11 18:06:23 GMT 38.726578 9.635368 38,025 346 411 0
2022-05-11 18:06:17 GMT 38.716053 9.638794 38,025 346 411 -64
2022-05-11 18:06:13 GMT 38.702831 9.643066 38,025 346 411 0
2022-05-11 18:06:07 GMT 38.697922 9.644623 38,025 346 410 0
2022-05-11 18:06:02 GMT 38.687851 9.647847 38,000 346 409 64
2022-05-11 18:05:56 GMT 38.676949 9.651367 38,000 346 407 64
2022-05-11 18:05:52 GMT 38.668396 9.654116 38,000 346 406 64
2022-05-11 18:05:46 GMT 38.658829 9.657162 38,000 346 404 0
2022-05-11 18:05:43 GMT 38.653534 9.658875 38,025 346 403 -64
2022-05-11 18:05:40 GMT 38.649536 9.660147 38,025 346 403 -64
2022-05-11 18:05:37 GMT 38.642082 9.662537 38,025 346 401 -64
2022-05-11 18:05:31 GMT 38.631546 9.665939 38,025 346 399 256
2022-05-11 18:05:27 GMT 38.624359 9.668267 38,000 346 399 832
2022-05-11 18:05:21 GMT 38.612846 9.671997 37,925 346 399 704
2022-05-11 18:05:16 GMT 38.605446 9.674377 37,850 346 399 1216
2022-05-11 18:05:13 GMT 38.597168 9.677044 37,750 346 400 1216
2022-05-11 18:05:10 GMT 38.593948 9.678101 37,725 346 400 1152
2022-05-11 18:05:02 GMT 38.579842 9.682678 37,500 346 402 1344
2022-05-11 18:04:59 GMT 38.575424 9.684090 37,500 346 402 1344
2022-05-11 18:04:52 GMT 38.561172 9.688721 37,325 346 403 1280
2022-05-11 18:04:49 GMT 38.556610 9.690180 37,275 346 404 1408
2022-05-11 18:04:39 GMT 38.538177 9.696228 37,025 346 406 1344
2022-05-11 18:04:29 GMT 38.519276 9.702332 36,750 346 409 1728
2022-05-11 18:04:19 GMT 38.499958 9.708618 36,475 346 412 1536
2022-05-11 18:04:11 GMT 38.487293 9.712769 36,300 346 414 1536
2022-05-11 18:04:08 GMT 38.481537 9.714601 36,225 346 414 1408
2022-05-11 18:04:01 GMT 38.467930 9.718994 36,050 346 415 1408
2022-05-11 18:03:58 GMT 38.463043 9.720572 36,000 346 416 1600
2022-05-11 18:03:51 GMT 38.448750 9.725159 35,800 346 418 1408
2022-05-11 18:03:48 GMT 38.443069 9.726990 35,725 346 418 1408
2022-05-11 18:03:38 GMT 38.424683 9.732849 35,450 346 420 1664
2022-05-11 18:03:30 GMT 38.410309 9.737451 35,250 346 421 1664
2022-05-11 18:03:27 GMT 38.404587 9.739263 35,175 346 422 1664
2022-05-11 18:03:21 GMT 38.391167 9.743559 34,975 347 423 1600
2022-05-11 18:03:17 GMT 38.385406 9.745341 34,900 347 424 1600
2022-05-11 18:03:10 GMT 38.371986 9.749590 34,700 347 425 1728
2022-05-11 18:03:07 GMT 38.365631 9.751593 34,600 347 426 1728
2022-05-11 18:03:00 GMT 38.352264 9.755742 34,400 347 427 1728
2022-05-11 18:02:57 GMT 38.346058 9.757651 34,300 347 428 1664
2022-05-11 18:02:50 GMT 38.333019 9.761711 34,125 347 428 1344
2022-05-11 18:02:46 GMT 38.325989 9.763865 34,050 347 428 1280
2022-05-11 18:02:42 GMT 38.318542 9.766189 33,975 347 428 1344
2022-05-11 18:02:39 GMT 38.312538 9.768040 33,900 347 428 1408
2022-05-11 18:02:36 GMT 38.304977 9.770410 33,800 346 428 1344
2022-05-11 18:02:30 GMT 38.293777 9.773951 33,675 346 429 1216
2022-05-11 18:02:24 GMT 38.284466 9.776996 33,575 346 428 1280
2022-05-11 18:02:21 GMT 38.278507 9.778966 33,525 345 428 1344
2022-05-11 18:02:18 GMT 38.272476 9.780988 33,450 345 429 1280
2022-05-11 18:02:14 GMT 38.265007 9.783564 33,375 345 429 1216
2022-05-11 18:02:11 GMT 38.259514 9.785475 33,300 345 428 1216
2022-05-11 18:02:08 GMT 38.253696 9.787564 33,250 345 428 1280
2022-05-11 18:02:05 GMT 38.246338 9.790162 33,175 345 428 1280
2022-05-11 18:01:58 GMT 38.233540 9.794670 33,025 345 428 1280
2022-05-11 18:01:54 GMT 38.226379 9.797233 32,925 345 428 1408
2022-05-11 18:01:48 GMT 38.214569 9.801383 32,800 345 427 1280
2022-05-11 18:01:43 GMT 38.205688 9.804538 32,700 345 427 1216
2022-05-11 18:01:38 GMT 38.194622 9.808462 32,575 345 427 1664
2022-05-11 18:01:34 GMT 38.186920 9.811200 32,450 345 427 1472
2022-05-11 18:01:28 GMT 38.175751 9.815115 32,325 345 427 1280
2022-05-11 18:01:23 GMT 38.167099 9.818213 32,225 345 426 1216
2022-05-11 18:01:18 GMT 38.155609 9.822255 32,100 345 425 1152
2022-05-11 18:01:12 GMT 38.145950 9.825634 32,000 345 425 1280
2022-05-11 18:01:07 GMT 38.135639 9.829301 31,875 345 424 1344
2022-05-11 18:01:02 GMT 38.128006 9.831987 31,800 345 424 1408
2022-05-11 18:00:56 GMT 38.116241 9.836153 31,650 345 423 1472
2022-05-11 18:00:52 GMT 38.108459 9.838900 31,550 345 423 1536
2022-05-11 18:00:46 GMT 38.097382 9.842815 31,400 345 423 1408
2022-05-11 18:00:41 GMT 38.087505 9.846258 31,275 345 422 1280
2022-05-11 18:00:37 GMT 38.078156 9.849535 31,175 345 421 1280
2022-05-11 18:00:31 GMT 38.068634 9.852925 31,075 345 421 1344
2022-05-11 18:00:26 GMT 38.058968 9.856348 30,950 345 420 1344
2022-05-11 18:00:21 GMT 38.050095 9.859411 30,850 345 419 1344
2022-05-11 18:00:16 GMT 38.040115 9.862916 30,725 345 419 1408
2022-05-11 18:00:10 GMT 38.028900 9.866891 30,575 345 418 1536
2022-05-11 18:00:05 GMT 38.020283 9.869902 30,450 345 418 1600
2022-05-11 18:00:00 GMT 38.011093 9.873144 30,325 345 417 1472
2022-05-11 17:59:56 GMT 38.001389 9.876534 30,200 345 417 1344
2022-05-11 17:59:49 GMT 37.989853 9.880566 30,050 345 415 1536
2022-05-11 17:59:45 GMT 37.983044 9.882978 29,975 345 415 1344
2022-05-11 17:59:39 GMT 37.972046 9.886819 29,850 345 414 1216
2022-05-11 17:59:35 GMT 37.964329 9.889546 29,750 345 413 1664
2022-05-11 17:59:30 GMT 37.953644 9.893305 29,575 345 411 1536
2022-05-11 17:59:24 GMT 37.944122 9.896652 29,450 345 411 1408
2022-05-11 17:59:19 GMT 37.934921 9.899850 29,325 345 410 1472
2022-05-11 17:59:14 GMT 37.926498 9.902831 29,200 345 410 1600
2022-05-11 17:59:09 GMT 37.915775 9.906563 29,050 345 410 1664
2022-05-11 17:59:05 GMT 37.908092 9.909310 28,925 345 408 1600
2022-05-11 17:58:59 GMT 37.897663 9.912952 28,775 345 407 1664
2022-05-11 17:58:54 GMT 37.888725 9.916057 28,650 345 407 1792
2022-05-11 17:58:48 GMT 37.879074 9.919427 28,475 345 406 1728
2022-05-11 17:58:44 GMT 37.870789 9.922349 28,350 345 406 1664
2022-05-11 17:58:38 GMT 37.860283 9.925968 28,200 345 405 1792
2022-05-11 17:58:34 GMT 37.852432 9.928719 28,075 345 404 1600
2022-05-11 17:58:28 GMT 37.841057 9.932715 27,900 345 403 1472
2022-05-11 17:58:23 GMT 37.833527 9.935322 27,800 345 402 1600
2022-05-11 17:58:17 GMT 37.823273 9.938887 27,625 345 401 1856
2022-05-11 17:58:14 GMT 37.816086 9.941458 27,500 345 401 1920
2022-05-11 17:58:06 GMT 37.802933 9.946030 27,275 345 400 1792
2022-05-11 17:58:03 GMT 37.797298 9.948001 27,175 345 399 1856
2022-05-11 17:57:56 GMT 37.786125 9.951882 26,975 345 399 1920
2022-05-11 17:57:53 GMT 37.778732 9.954490 26,850 345 398 1792
2022-05-11 17:57:47 GMT 37.768108 9.958211 26,675 345 397 1728
2022-05-11 17:57:43 GMT 37.761063 9.960684 26,575 345 396 1728
2022-05-11 17:57:36 GMT 37.749985 9.964541 26,375 345 395 1920
2022-05-11 17:57:32 GMT 37.743164 9.966937 26,250 345 395 1984
2022-05-11 17:57:22 GMT 37.724911 9.973257 25,925 345 393 1792
2022-05-11 17:57:15 GMT 37.711624 9.977865 25,700 345 392 1856
2022-05-11 17:57:13 GMT 37.707127 9.979467 25,625 345 391 1920
2022-05-11 17:57:05 GMT 37.695786 9.983358 25,400 345 390 1984
2022-05-11 17:57:02 GMT 37.689903 9.985438 25,300 345 389 1920
2022-05-11 17:56:55 GMT 37.677612 9.989728 25,075 345 387 2048
2022-05-11 17:56:52 GMT 37.671890 9.991715 24,950 345 386 2048
2022-05-11 17:56:44 GMT 37.657829 9.996603 24,675 345 385 2048
2022-05-11 17:56:42 GMT 37.654358 9.997792 24,600 345 385 2048
2022-05-11 17:56:31 GMT 37.636692 10.003947 24,250 345 383 1984
2022-05-11 17:56:24 GMT 37.624649 10.008136 24,025 345 381 2048
2022-05-11 17:56:14 GMT 37.607319 10.014158 23,675 345 379 2048
2022-05-11 17:56:12 GMT 37.602722 10.015733 23,575 345 378 2048
2022-05-11 17:56:00 GMT 37.584366 10.022161 23,225 345 375 1920
2022-05-11 17:55:51 GMT 37.568027 10.027831 22,900 345 372 1856
2022-05-11 17:55:40 GMT 37.550034 10.034082 22,550 345 369 2048
2022-05-11 17:55:32 GMT 37.538189 10.038220 22,300 345 367 2176
2022-05-11 17:55:30 GMT 37.534195 10.039575 22,225 345 366 2304
2022-05-11 17:55:22 GMT 37.520966 10.044191 21,875 345 365 2560
2022-05-11 17:55:20 GMT 37.516171 10.045803 21,750 345 365 2560
2022-05-11 17:55:12 GMT 37.505135 10.049624 21,475 345 364 2560
2022-05-11 17:55:09 GMT 37.500294 10.051296 21,350 345 364 2560
2022-05-11 17:55:01 GMT 37.487446 10.055714 20,975 345 362 2752
2022-05-11 17:54:59 GMT 37.484001 10.056909 20,900 345 363 2816
2022-05-11 17:54:49 GMT 37.467819 10.062542 20,400 345 363 2944
2022-05-11 17:54:41 GMT 37.455048 10.066940 20,025 345 364 2880
2022-05-11 17:54:39 GMT 37.451599 10.068134 19,925 345 364 2880
2022-05-11 17:54:30 GMT 37.435089 10.073879 19,450 345 363 2688
2022-05-11 17:54:27 GMT 37.426231 10.076911 19,200 345 362 2816
2022-05-11 17:54:21 GMT 37.421391 10.078583 19,050 345 361 2752
2022-05-11 17:54:19 GMT 37.418037 10.079777 18,975 345 361 2752
2022-05-11 17:54:14 GMT 37.405327 10.084136 18,625 345 360 2688
2022-05-11 17:54:09 GMT 37.402817 10.085040 18,550 345 360 2688
2022-05-11 17:54:00 GMT 37.384964 10.091235 18,050 345 356 2624
2022-05-11 17:53:58 GMT 37.363712 10.098585 17,750 345 352 2560
2022-05-11 17:53:47 GMT 37.363712 10.098585 17,450 345 352 2624
2022-05-11 17:53:40 GMT 37.356079 10.101227 17,250 345 351 2496
2022-05-11 17:53:34 GMT 37.343353 10.105610 16,925 345 347 2688
2022-05-11 17:53:30 GMT 37.340527 10.106586 16,825 345 347 2688
2022-05-11 17:53:22 GMT 37.323769 10.112437 16,350 345 344 2560
2022-05-11 17:53:17 GMT 37.321533 10.113214 16,275 345 344 2560
2022-05-11 17:53:09 GMT 37.307877 10.117941 15,750 345 339 2688
2022-05-11 17:53:07 GMT 37.305542 10.118700 15,825 345 340 2688
2022-05-11 17:52:56 GMT 37.283844 10.126180 15,125 345 336 2944
2022-05-11 17:52:42 GMT 37.262924 10.133335 14,450 345 332 2688
2022-05-11 17:52:36 GMT 37.259171 10.134596 14,350 345 331 2304
2022-05-11 17:52:29 GMT 37.244026 10.139784 13,875 345 325 2240
2022-05-11 17:52:24 GMT 37.240173 10.141082 13,875 345 325 2240
2022-05-11 17:52:15 GMT 37.228756 10.145038 13,775 345 310 960
2022-05-11 17:52:03 GMT 37.205750 10.153179 13,100 344 300 3008
2022-05-11 17:51:55 GMT 37.200943 10.154873 12,925 344 299 2752
2022-05-11 17:51:48 GMT 37.188675 10.159315 12,500 344 296 3136
2022-05-11 17:51:44 GMT 37.186432 10.160074 12,500 344 296 3136
2022-05-11 17:51:36 GMT 37.172195 10.165220 11,875 345 295 3008
2022-05-11 17:51:26 GMT 37.162373 10.168742 11,500 345 294 2816
2022-05-11 17:51:23 GMT 37.155109 10.171310 11,250 345 291 2624
2022-05-11 17:51:14 GMT 37.146500 10.174295 10,975 345 289 2496
2022-05-11 17:51:09 GMT 37.137772 10.177372 10,675 345 287 2880
2022-05-11 17:51:03 GMT 37.133514 10.178833 10,500 345 287 2880
2022-05-11 17:50:53 GMT 37.120972 10.183041 10,075 346 284 3200
2022-05-11 17:50:43 GMT 37.107861 10.187252 9,500 346 284 2880
2022-05-11 17:50:34 GMT 37.096252 10.191105 9,050 345 283 2944
2022-05-11 17:50:28 GMT 37.085312 10.194845 8,625 345 282 2944
2022-05-11 17:50:23 GMT 37.083527 10.195429 8,575 345 281 2624
2022-05-11 17:50:08 GMT 37.060654 10.203134 8,125 346 277 2624
2022-05-11 17:50:04 GMT 37.055813 10.204806 7,575 346 272 2432

Making use of Plane Finder data

You are free to use the raw flight data, aircraft information and images provided in this report for your own purposes provided the data is correctly attributed to Plane Finder. We ask that you please credit Plane Finder and link to planefinder.net in close proximity to the content.

Optionally one of the following logos (no smaller then 150x24px) can be used and must link to planefinder.net

Embedding the Plane Finder map

You are welcome to embed the Plane Finder playback map on your website to offer visitors a more interactive experience. We suggest using the following HTML code:

<iframe src="//planefinder.net/data/report/TO8075-F-HUYM-7700-squawk-2022-05-11/map" width="800" height="600" seamless="seamless"></iframe>

Where our data comes from

Plane Finder has a global network of data feeds and antenna radars that receive data broadcast directly from aircraft. The primary technologies used are ADS-B and MLAT. We also show feeds from the FAA and a FLARM glider feed.

Click here to find out more about the Plane Finder network.

How we collect our data